<?xml version="1.0" encoding="UTF-8" standalone="no" ?>
<gpx xmlns="http://www.topografix.com/GPX/1/1" creator="MapSource 6.13.2" version="1.1" xmlns:xsi="http://www.w3.org/2001/XMLSchema-instance" xsi:schemaLocation="http://www.garmin.com/xmlschemas/GpxExtensions/v3 http://www.garmin.com/xmlschemas/GpxExtensions/v3/GpxExtensionsv3.xsd http://www.topografix.com/GPX/1/1 http://www.topografix.com/GPX/1/1/gpx.xsd">

  <metadata>
    <link href="http://www.knallwade.de/">
      <text>Knallwade</text>
    </link>
    <time>2007-11-22T14:18:43Z</time>
    <bounds maxlat="28.3056878" maxlon="-16.8397502" minlat="28.2889684" minlon="-16.8625362"/>
  </metadata>

  <trk>
    <name>Teneriffa Rother Tour 24 (nur Abstieg)</name>
    <trkseg>
      <trkpt lat="28.3053646" lon="-16.8397528">
        <ele>638.9335938</ele>
        <time>2007-11-15T10:35:27Z</time>
      </trkpt>
      <trkpt lat="28.3053655" lon="-16.8397502">
        <ele>640.8559570</ele>
        <time>2007-11-15T10:35:35Z</time>
      </trkpt>
      <trkpt lat="28.3053702" lon="-16.8397604">
        <ele>641.3366699</ele>
        <time>2007-11-15T10:35:39Z</time>
      </trkpt>
      <trkpt lat="28.3053843" lon="-16.8398693">
        <ele>641.8173828</ele>
        <time>2007-11-15T10:35:51Z</time>
      </trkpt>
      <trkpt lat="28.3053295" lon="-16.8400786">
        <ele>641.8173828</ele>
        <time>2007-11-15T10:36:10Z</time>
      </trkpt>
      <trkpt lat="28.3053610" lon="-16.8400909">
        <ele>643.7399902</ele>
        <time>2007-11-15T10:36:40Z</time>
      </trkpt>
      <trkpt lat="28.3054924" lon="-16.8402216">
        <ele>639.4140625</ele>
        <time>2007-11-15T10:36:53Z</time>
      </trkpt>
      <trkpt lat="28.3056878" lon="-16.8403740">
        <ele>638.4528809</ele>
        <time>2007-11-15T10:37:14Z</time>
      </trkpt>
      <trkpt lat="28.3056602" lon="-16.8403744">
        <ele>637.9721680</ele>
        <time>2007-11-15T10:37:23Z</time>
      </trkpt>
      <trkpt lat="28.3056043" lon="-16.8403600">
        <ele>636.0495605</ele>
        <time>2007-11-15T10:37:29Z</time>
      </trkpt>
      <trkpt lat="28.3055695" lon="-16.8403566">
        <ele>635.5686035</ele>
        <time>2007-11-15T10:37:45Z</time>
      </trkpt>
      <trkpt lat="28.3055366" lon="-16.8403369">
        <ele>634.1267090</ele>
        <time>2007-11-15T10:37:49Z</time>
      </trkpt>
      <trkpt lat="28.3054288" lon="-16.8402749">
        <ele>632.2041016</ele>
        <time>2007-11-15T10:38:01Z</time>
      </trkpt>
      <trkpt lat="28.3052651" lon="-16.8402735">
        <ele>627.8781738</ele>
        <time>2007-11-15T10:38:17Z</time>
      </trkpt>
      <trkpt lat="28.3051758" lon="-16.8402509">
        <ele>626.9169922</ele>
        <time>2007-11-15T10:38:30Z</time>
      </trkpt>
      <trkpt lat="28.3051758" lon="-16.8402435">
        <ele>625.9555664</ele>
        <time>2007-11-15T10:38:45Z</time>
      </trkpt>
      <trkpt lat="28.3049849" lon="-16.8401403">
        <ele>625.4748535</ele>
        <time>2007-11-15T10:39:03Z</time>
      </trkpt>
      <trkpt lat="28.3049547" lon="-16.8401241">
        <ele>624.5136719</ele>
        <time>2007-11-15T10:39:17Z</time>
      </trkpt>
      <trkpt lat="28.3049303" lon="-16.8401232">
        <ele>625.4748535</ele>
        <time>2007-11-15T10:39:53Z</time>
      </trkpt>
      <trkpt lat="28.3051128" lon="-16.8402424">
        <ele>626.4362793</ele>
        <time>2007-11-15T10:40:10Z</time>
      </trkpt>
      <trkpt lat="28.3050542" lon="-16.8402325">
        <ele>624.0329590</ele>
        <time>2007-11-15T10:40:16Z</time>
      </trkpt>
      <trkpt lat="28.3049739" lon="-16.8402150">
        <ele>620.6684570</ele>
        <time>2007-11-15T10:40:24Z</time>
      </trkpt>
      <trkpt lat="28.3049640" lon="-16.8402160">
        <ele>620.6684570</ele>
        <time>2007-11-15T10:40:25Z</time>
      </trkpt>
      <trkpt lat="28.3048777" lon="-16.8402609">
        <ele>617.3037109</ele>
        <time>2007-11-15T10:40:36Z</time>
      </trkpt>
      <trkpt lat="28.3048299" lon="-16.8402986">
        <ele>614.9003906</ele>
        <time>2007-11-15T10:40:43Z</time>
      </trkpt>
      <trkpt lat="28.3047439" lon="-16.8403474">
        <ele>611.5358887</ele>
        <time>2007-11-15T10:40:55Z</time>
      </trkpt>
      <trkpt lat="28.3047145" lon="-16.8404039">
        <ele>609.6132813</ele>
        <time>2007-11-15T10:41:08Z</time>
      </trkpt>
      <trkpt lat="28.3046263" lon="-16.8404480">
        <ele>606.2485352</ele>
        <time>2007-11-15T10:41:25Z</time>
      </trkpt>
      <trkpt lat="28.3046099" lon="-16.8404545">
        <ele>605.7680664</ele>
        <time>2007-11-15T10:41:27Z</time>
      </trkpt>
      <trkpt lat="28.3045641" lon="-16.8404816">
        <ele>604.8066406</ele>
        <time>2007-11-15T10:41:31Z</time>
      </trkpt>
      <trkpt lat="28.3043172" lon="-16.8405056">
        <ele>602.8837891</ele>
        <time>2007-11-15T10:41:51Z</time>
      </trkpt>
      <trkpt lat="28.3042727" lon="-16.8404775">
        <ele>600.9611816</ele>
        <time>2007-11-15T10:42:02Z</time>
      </trkpt>
      <trkpt lat="28.3042908" lon="-16.8404205">
        <ele>599.0385742</ele>
        <time>2007-11-15T10:42:16Z</time>
      </trkpt>
      <trkpt lat="28.3042524" lon="-16.8404070">
        <ele>597.1159668</ele>
        <time>2007-11-15T10:42:22Z</time>
      </trkpt>
      <trkpt lat="28.3041597" lon="-16.8403873">
        <ele>595.1933594</ele>
        <time>2007-11-15T10:42:36Z</time>
      </trkpt>
      <trkpt lat="28.3041017" lon="-16.8403693">
        <ele>591.3481445</ele>
        <time>2007-11-15T10:42:46Z</time>
      </trkpt>
      <trkpt lat="28.3040614" lon="-16.8403274">
        <ele>587.9833984</ele>
        <time>2007-11-15T10:43:00Z</time>
      </trkpt>
      <trkpt lat="28.3040680" lon="-16.8403010">
        <ele>586.5415039</ele>
        <time>2007-11-15T10:43:03Z</time>
      </trkpt>
      <trkpt lat="28.3040147" lon="-16.8402744">
        <ele>583.6574707</ele>
        <time>2007-11-15T10:43:12Z</time>
      </trkpt>
      <trkpt lat="28.3039096" lon="-16.8402506">
        <ele>580.7736816</ele>
        <time>2007-11-15T10:43:29Z</time>
      </trkpt>
      <trkpt lat="28.3038524" lon="-16.8402422">
        <ele>577.4091797</ele>
        <time>2007-11-15T10:43:42Z</time>
      </trkpt>
      <trkpt lat="28.3037960" lon="-16.8402124">
        <ele>575.4863281</ele>
        <time>2007-11-15T10:43:55Z</time>
      </trkpt>
      <trkpt lat="28.3037830" lon="-16.8401620">
        <ele>573.0832520</ele>
        <time>2007-11-15T10:44:05Z</time>
      </trkpt>
      <trkpt lat="28.3037237" lon="-16.8401566">
        <ele>570.6796875</ele>
        <time>2007-11-15T10:44:19Z</time>
      </trkpt>
      <trkpt lat="28.3037109" lon="-16.8401023">
        <ele>567.7956543</ele>
        <time>2007-11-15T10:44:33Z</time>
      </trkpt>
      <trkpt lat="28.3036312" lon="-16.8401106">
        <ele>564.4311523</ele>
        <time>2007-11-15T10:44:43Z</time>
      </trkpt>
      <trkpt lat="28.3035740" lon="-16.8400677">
        <ele>561.5473633</ele>
        <time>2007-11-15T10:44:57Z</time>
      </trkpt>
      <trkpt lat="28.3035009" lon="-16.8400879">
        <ele>558.1828613</ele>
        <time>2007-11-15T10:45:08Z</time>
      </trkpt>
      <trkpt lat="28.3034490" lon="-16.8400694">
        <ele>556.2600098</ele>
        <time>2007-11-15T10:45:20Z</time>
      </trkpt>
      <trkpt lat="28.3033770" lon="-16.8400481">
        <ele>553.3759766</ele>
        <time>2007-11-15T10:45:51Z</time>
      </trkpt>
      <trkpt lat="28.3033608" lon="-16.8400520">
        <ele>552.8952637</ele>
        <time>2007-11-15T10:45:53Z</time>
      </trkpt>
      <trkpt lat="28.3033268" lon="-16.8400864">
        <ele>551.9340820</ele>
        <time>2007-11-15T10:45:58Z</time>
      </trkpt>
      <trkpt lat="28.3032810" lon="-16.8400903">
        <ele>549.0500488</ele>
        <time>2007-11-15T10:46:03Z</time>
      </trkpt>
      <trkpt lat="28.3032519" lon="-16.8400868">
        <ele>548.0888672</ele>
        <time>2007-11-15T10:46:06Z</time>
      </trkpt>
      <trkpt lat="28.3031988" lon="-16.8401147">
        <ele>547.6081543</ele>
        <time>2007-11-15T10:46:12Z</time>
      </trkpt>
      <trkpt lat="28.3032035" lon="-16.8401512">
        <ele>546.6468506</ele>
        <time>2007-11-15T10:46:15Z</time>
      </trkpt>
      <trkpt lat="28.3031940" lon="-16.8401703">
        <ele>546.1662598</ele>
        <time>2007-11-15T10:46:17Z</time>
      </trkpt>
      <trkpt lat="28.3031532" lon="-16.8401921">
        <ele>545.2048340</ele>
        <time>2007-11-15T10:46:21Z</time>
      </trkpt>
      <trkpt lat="28.3030333" lon="-16.8402397">
        <ele>541.8402100</ele>
        <time>2007-11-15T10:46:36Z</time>
      </trkpt>
      <trkpt lat="28.3030246" lon="-16.8402423">
        <ele>541.8402100</ele>
        <time>2007-11-15T10:46:37Z</time>
      </trkpt>
      <trkpt lat="28.3029284" lon="-16.8402781">
        <ele>538.4757080</ele>
        <time>2007-11-15T10:46:52Z</time>
      </trkpt>
      <trkpt lat="28.3028832" lon="-16.8402994">
        <ele>537.0336914</ele>
        <time>2007-11-15T10:46:58Z</time>
      </trkpt>
      <trkpt lat="28.3028197" lon="-16.8403511">
        <ele>536.0723877</ele>
        <time>2007-11-15T10:47:06Z</time>
      </trkpt>
      <trkpt lat="28.3027005" lon="-16.8402885">
        <ele>532.7077637</ele>
        <time>2007-11-15T10:47:21Z</time>
      </trkpt>
      <trkpt lat="28.3026852" lon="-16.8402416">
        <ele>530.3044434</ele>
        <time>2007-11-15T10:47:33Z</time>
      </trkpt>
      <trkpt lat="28.3026628" lon="-16.8402299">
        <ele>528.8625488</ele>
        <time>2007-11-15T10:47:38Z</time>
      </trkpt>
      <trkpt lat="28.3026386" lon="-16.8402351">
        <ele>527.9010010</ele>
        <time>2007-11-15T10:47:41Z</time>
      </trkpt>
      <trkpt lat="28.3026190" lon="-16.8402396">
        <ele>527.9010010</ele>
        <time>2007-11-15T10:47:43Z</time>
      </trkpt>
      <trkpt lat="28.3025730" lon="-16.8402763">
        <ele>526.9398193</ele>
        <time>2007-11-15T10:47:49Z</time>
      </trkpt>
      <trkpt lat="28.3024677" lon="-16.8402802">
        <ele>524.5364990</ele>
        <time>2007-11-15T10:48:04Z</time>
      </trkpt>
      <trkpt lat="28.3023612" lon="-16.8402847">
        <ele>523.0946045</ele>
        <time>2007-11-15T10:48:15Z</time>
      </trkpt>
      <trkpt lat="28.3023176" lon="-16.8402344">
        <ele>523.0946045</ele>
        <time>2007-11-15T10:48:20Z</time>
      </trkpt>
      <trkpt lat="28.3022166" lon="-16.8401551">
        <ele>520.2105713</ele>
        <time>2007-11-15T10:48:35Z</time>
      </trkpt>
      <trkpt lat="28.3021984" lon="-16.8401459">
        <ele>519.2492676</ele>
        <time>2007-11-15T10:48:37Z</time>
      </trkpt>
      <trkpt lat="28.3021450" lon="-16.8401091">
        <ele>518.7685547</ele>
        <time>2007-11-15T10:48:42Z</time>
      </trkpt>
      <trkpt lat="28.3021308" lon="-16.8400662">
        <ele>520.6912842</ele>
        <time>2007-11-15T10:48:46Z</time>
      </trkpt>
      <trkpt lat="28.3020989" lon="-16.8400531">
        <ele>518.7685547</ele>
        <time>2007-11-15T10:48:50Z</time>
      </trkpt>
      <trkpt lat="28.3020368" lon="-16.8400475">
        <ele>516.3652344</ele>
        <time>2007-11-15T10:48:58Z</time>
      </trkpt>
      <trkpt lat="28.3019821" lon="-16.8400735">
        <ele>515.4040527</ele>
        <time>2007-11-15T10:49:07Z</time>
      </trkpt>
      <trkpt lat="28.3019697" lon="-16.8400149">
        <ele>513.0007324</ele>
        <time>2007-11-15T10:49:23Z</time>
      </trkpt>
      <trkpt lat="28.3019536" lon="-16.8400192">
        <ele>512.0394287</ele>
        <time>2007-11-15T10:49:25Z</time>
      </trkpt>
      <trkpt lat="28.3018604" lon="-16.8400775">
        <ele>510.5972900</ele>
        <time>2007-11-15T10:49:39Z</time>
      </trkpt>
      <trkpt lat="28.3018652" lon="-16.8401092">
        <ele>508.6746826</ele>
        <time>2007-11-15T10:49:54Z</time>
      </trkpt>
      <trkpt lat="28.3018633" lon="-16.8400957">
        <ele>508.1940918</ele>
        <time>2007-11-15T10:49:57Z</time>
      </trkpt>
      <trkpt lat="28.3018253" lon="-16.8400760">
        <ele>507.7135010</ele>
        <time>2007-11-15T10:50:00Z</time>
      </trkpt>
      <trkpt lat="28.3017759" lon="-16.8400999">
        <ele>506.2714844</ele>
        <time>2007-11-15T10:50:04Z</time>
      </trkpt>
      <trkpt lat="28.3017063" lon="-16.8401079">
        <ele>506.2714844</ele>
        <time>2007-11-15T10:50:09Z</time>
      </trkpt>
      <trkpt lat="28.3016358" lon="-16.8402085">
        <ele>504.3488770</ele>
        <time>2007-11-15T10:50:19Z</time>
      </trkpt>
      <trkpt lat="28.3016158" lon="-16.8401998">
        <ele>503.8681641</ele>
        <time>2007-11-15T10:50:21Z</time>
      </trkpt>
      <trkpt lat="28.3015950" lon="-16.8402089">
        <ele>502.9067383</ele>
        <time>2007-11-15T10:50:24Z</time>
      </trkpt>
      <trkpt lat="28.3015903" lon="-16.8402317">
        <ele>500.5035400</ele>
        <time>2007-11-15T10:50:28Z</time>
      </trkpt>
      <trkpt lat="28.3015847" lon="-16.8403454">
        <ele>497.6196289</ele>
        <time>2007-11-15T10:50:43Z</time>
      </trkpt>
      <trkpt lat="28.3015763" lon="-16.8403583">
        <ele>496.1777344</ele>
        <time>2007-11-15T10:50:47Z</time>
      </trkpt>
      <trkpt lat="28.3015324" lon="-16.8403407">
        <ele>493.2935791</ele>
        <time>2007-11-15T10:50:59Z</time>
      </trkpt>
      <trkpt lat="28.3015306" lon="-16.8403365">
        <ele>493.2935791</ele>
        <time>2007-11-15T10:51:00Z</time>
      </trkpt>
      <trkpt lat="28.3014794" lon="-16.8402900">
        <ele>491.8516846</ele>
        <time>2007-11-15T10:51:15Z</time>
      </trkpt>
      <trkpt lat="28.3015152" lon="-16.8402506">
        <ele>491.8516846</ele>
        <time>2007-11-15T10:51:51Z</time>
      </trkpt>
      <trkpt lat="28.3015112" lon="-16.8402424">
        <ele>488.9677734</ele>
        <time>2007-11-15T10:53:59Z</time>
      </trkpt>
      <trkpt lat="28.3015028" lon="-16.8402200">
        <ele>488.0064697</ele>
        <time>2007-11-15T10:54:45Z</time>
      </trkpt>
      <trkpt lat="28.3014517" lon="-16.8401750">
        <ele>487.0450439</ele>
        <time>2007-11-15T10:55:17Z</time>
      </trkpt>
      <trkpt lat="28.3014526" lon="-16.8401598">
        <ele>486.0837402</ele>
        <time>2007-11-15T10:55:49Z</time>
      </trkpt>
      <trkpt lat="28.3014609" lon="-16.8401335">
        <ele>484.1611328</ele>
        <time>2007-11-15T10:56:42Z</time>
      </trkpt>
      <trkpt lat="28.3014438" lon="-16.8401610">
        <ele>483.1998291</ele>
        <time>2007-11-15T10:56:47Z</time>
      </trkpt>
      <trkpt lat="28.3013998" lon="-16.8401688">
        <ele>486.0837402</ele>
        <time>2007-11-15T10:56:57Z</time>
      </trkpt>
      <trkpt lat="28.3014056" lon="-16.8401478">
        <ele>486.5644531</ele>
        <time>2007-11-15T10:57:02Z</time>
      </trkpt>
      <trkpt lat="28.3013929" lon="-16.8401051">
        <ele>487.5256348</ele>
        <time>2007-11-15T10:57:06Z</time>
      </trkpt>
      <trkpt lat="28.3013842" lon="-16.8400821">
        <ele>489.4483643</ele>
        <time>2007-11-15T10:57:08Z</time>
      </trkpt>
      <trkpt lat="28.3013382" lon="-16.8400512">
        <ele>491.8516846</ele>
        <time>2007-11-15T10:57:13Z</time>
      </trkpt>
      <trkpt lat="28.3013389" lon="-16.8401297">
        <ele>493.2935791</ele>
        <time>2007-11-15T10:57:22Z</time>
      </trkpt>
      <trkpt lat="28.3013351" lon="-16.8401962">
        <ele>492.3323975</ele>
        <time>2007-11-15T10:57:28Z</time>
      </trkpt>
      <trkpt lat="28.3013179" lon="-16.8402884">
        <ele>489.4483643</ele>
        <time>2007-11-15T10:57:33Z</time>
      </trkpt>
      <trkpt lat="28.3012779" lon="-16.8404734">
        <ele>490.4097900</ele>
        <time>2007-11-15T10:57:46Z</time>
      </trkpt>
      <trkpt lat="28.3012444" lon="-16.8405656">
        <ele>488.0064697</ele>
        <time>2007-11-15T10:57:55Z</time>
      </trkpt>
      <trkpt lat="28.3012162" lon="-16.8407653">
        <ele>487.0450439</ele>
        <time>2007-11-15T10:58:11Z</time>
      </trkpt>
      <trkpt lat="28.3011646" lon="-16.8408759">
        <ele>483.6804199</ele>
        <time>2007-11-15T10:58:24Z</time>
      </trkpt>
      <trkpt lat="28.3010740" lon="-16.8410246">
        <ele>481.7578125</ele>
        <time>2007-11-15T10:58:38Z</time>
      </trkpt>
      <trkpt lat="28.3010626" lon="-16.8410420">
        <ele>481.2772217</ele>
        <time>2007-11-15T10:58:40Z</time>
      </trkpt>
      <trkpt lat="28.3010031" lon="-16.8411001">
        <ele>480.7966309</ele>
        <time>2007-11-15T10:58:46Z</time>
      </trkpt>
      <trkpt lat="28.3008822" lon="-16.8411561">
        <ele>479.3544922</ele>
        <time>2007-11-15T10:58:56Z</time>
      </trkpt>
      <trkpt lat="28.3007757" lon="-16.8412627">
        <ele>476.4705811</ele>
        <time>2007-11-15T10:59:12Z</time>
      </trkpt>
      <trkpt lat="28.3007399" lon="-16.8413265">
        <ele>473.1060791</ele>
        <time>2007-11-15T10:59:22Z</time>
      </trkpt>
      <trkpt lat="28.3007372" lon="-16.8413354">
        <ele>472.6253662</ele>
        <time>2007-11-15T10:59:23Z</time>
      </trkpt>
      <trkpt lat="28.3006956" lon="-16.8414714">
        <ele>470.2219238</ele>
        <time>2007-11-15T10:59:35Z</time>
      </trkpt>
      <trkpt lat="28.3006306" lon="-16.8416267">
        <ele>466.8574219</ele>
        <time>2007-11-15T10:59:50Z</time>
      </trkpt>
      <trkpt lat="28.3006257" lon="-16.8417487">
        <ele>463.9733887</ele>
        <time>2007-11-15T11:00:02Z</time>
      </trkpt>
      <trkpt lat="28.3006274" lon="-16.8417583">
        <ele>463.4927979</ele>
        <time>2007-11-15T11:00:03Z</time>
      </trkpt>
      <trkpt lat="28.3006373" lon="-16.8418137">
        <ele>462.0507813</ele>
        <time>2007-11-15T11:00:07Z</time>
      </trkpt>
      <trkpt lat="28.3006408" lon="-16.8418539">
        <ele>461.5701904</ele>
        <time>2007-11-15T11:00:10Z</time>
      </trkpt>
      <trkpt lat="28.3005108" lon="-16.8420092">
        <ele>460.6087646</ele>
        <time>2007-11-15T11:00:26Z</time>
      </trkpt>
      <trkpt lat="28.3004281" lon="-16.8420955">
        <ele>457.2442627</ele>
        <time>2007-11-15T11:00:41Z</time>
      </trkpt>
      <trkpt lat="28.3003711" lon="-16.8421038">
        <ele>455.3215332</ele>
        <time>2007-11-15T11:00:55Z</time>
      </trkpt>
      <trkpt lat="28.3003502" lon="-16.8421036">
        <ele>455.3215332</ele>
        <time>2007-11-15T11:00:58Z</time>
      </trkpt>
      <trkpt lat="28.3002928" lon="-16.8421035">
        <ele>453.3989258</ele>
        <time>2007-11-15T11:01:03Z</time>
      </trkpt>
      <trkpt lat="28.3002547" lon="-16.8421093">
        <ele>452.4376221</ele>
        <time>2007-11-15T11:01:06Z</time>
      </trkpt>
      <trkpt lat="28.3001328" lon="-16.8420973">
        <ele>449.0729980</ele>
        <time>2007-11-15T11:01:20Z</time>
      </trkpt>
      <trkpt lat="28.3001130" lon="-16.8421031">
        <ele>448.5924072</ele>
        <time>2007-11-15T11:01:24Z</time>
      </trkpt>
      <trkpt lat="28.3000997" lon="-16.8421155">
        <ele>448.5924072</ele>
        <time>2007-11-15T11:01:26Z</time>
      </trkpt>
      <trkpt lat="28.3000341" lon="-16.8421455">
        <ele>447.6309814</ele>
        <time>2007-11-15T11:01:33Z</time>
      </trkpt>
      <trkpt lat="28.2999430" lon="-16.8421491">
        <ele>444.7470703</ele>
        <time>2007-11-15T11:01:47Z</time>
      </trkpt>
      <trkpt lat="28.2999311" lon="-16.8421533">
        <ele>443.7857666</ele>
        <time>2007-11-15T11:01:49Z</time>
      </trkpt>
      <trkpt lat="28.2998793" lon="-16.8421443">
        <ele>440.9018555</ele>
        <time>2007-11-15T11:02:02Z</time>
      </trkpt>
      <trkpt lat="28.2998369" lon="-16.8421785">
        <ele>438.0178223</ele>
        <time>2007-11-15T11:02:16Z</time>
      </trkpt>
      <trkpt lat="28.2997446" lon="-16.8421776">
        <ele>435.6145020</ele>
        <time>2007-11-15T11:02:30Z</time>
      </trkpt>
      <trkpt lat="28.2996898" lon="-16.8422201">
        <ele>434.1726074</ele>
        <time>2007-11-15T11:02:41Z</time>
      </trkpt>
      <trkpt lat="28.2996547" lon="-16.8422359">
        <ele>432.2500000</ele>
        <time>2007-11-15T11:02:51Z</time>
      </trkpt>
      <trkpt lat="28.2996508" lon="-16.8422418">
        <ele>432.2500000</ele>
        <time>2007-11-15T11:02:53Z</time>
      </trkpt>
      <trkpt lat="28.2996458" lon="-16.8422636">
        <ele>430.8079834</ele>
        <time>2007-11-15T11:02:56Z</time>
      </trkpt>
      <trkpt lat="28.2996054" lon="-16.8422797">
        <ele>426.9627686</ele>
        <time>2007-11-15T11:03:08Z</time>
      </trkpt>
      <trkpt lat="28.2996048" lon="-16.8422843">
        <ele>427.4433594</ele>
        <time>2007-11-15T11:03:09Z</time>
      </trkpt>
      <trkpt lat="28.2996048" lon="-16.8422893">
        <ele>430.8079834</ele>
        <time>2007-11-15T11:03:11Z</time>
      </trkpt>
      <trkpt lat="28.2996048" lon="-16.8422911">
        <ele>430.8079834</ele>
        <time>2007-11-15T11:03:12Z</time>
      </trkpt>
      <trkpt lat="28.2996065" lon="-16.8423050">
        <ele>427.4433594</ele>
        <time>2007-11-15T11:03:20Z</time>
      </trkpt>
      <trkpt lat="28.2995878" lon="-16.8423408">
        <ele>429.3659668</ele>
        <time>2007-11-15T11:03:32Z</time>
      </trkpt>
      <trkpt lat="28.2995323" lon="-16.8423315">
        <ele>429.3659668</ele>
        <time>2007-11-15T11:03:38Z</time>
      </trkpt>
      <trkpt lat="28.2993912" lon="-16.8423070">
        <ele>427.4433594</ele>
        <time>2007-11-15T11:03:55Z</time>
      </trkpt>
      <trkpt lat="28.2993949" lon="-16.8422973">
        <ele>426.4820557</ele>
        <time>2007-11-15T11:04:05Z</time>
      </trkpt>
      <trkpt lat="28.2992702" lon="-16.8423434">
        <ele>424.5594482</ele>
        <time>2007-11-15T11:04:18Z</time>
      </trkpt>
      <trkpt lat="28.2991937" lon="-16.8424138">
        <ele>422.6367188</ele>
        <time>2007-11-15T11:04:27Z</time>
      </trkpt>
      <trkpt lat="28.2991607" lon="-16.8424981">
        <ele>420.7141113</ele>
        <time>2007-11-15T11:04:38Z</time>
      </trkpt>
      <trkpt lat="28.2991329" lon="-16.8424792">
        <ele>420.2333984</ele>
        <time>2007-11-15T11:04:44Z</time>
      </trkpt>
      <trkpt lat="28.2991263" lon="-16.8425165">
        <ele>418.3107910</ele>
        <time>2007-11-15T11:04:48Z</time>
      </trkpt>
      <trkpt lat="28.2991157" lon="-16.8425530">
        <ele>416.3881836</ele>
        <time>2007-11-15T11:04:51Z</time>
      </trkpt>
      <trkpt lat="28.2990723" lon="-16.8426641">
        <ele>416.3881836</ele>
        <time>2007-11-15T11:05:02Z</time>
      </trkpt>
      <trkpt lat="28.2990397" lon="-16.8427591">
        <ele>416.3881836</ele>
        <time>2007-11-15T11:05:15Z</time>
      </trkpt>
      <trkpt lat="28.2990433" lon="-16.8427757">
        <ele>416.3881836</ele>
        <time>2007-11-15T11:05:17Z</time>
      </trkpt>
      <trkpt lat="28.2991287" lon="-16.8427893">
        <ele>413.0235596</ele>
        <time>2007-11-15T11:05:30Z</time>
      </trkpt>
      <trkpt lat="28.2991283" lon="-16.8427935">
        <ele>412.5428467</ele>
        <time>2007-11-15T11:05:32Z</time>
      </trkpt>
      <trkpt lat="28.2990605" lon="-16.8428334">
        <ele>408.6976318</ele>
        <time>2007-11-15T11:05:55Z</time>
      </trkpt>
      <trkpt lat="28.2990706" lon="-16.8428500">
        <ele>408.6976318</ele>
        <time>2007-11-15T11:05:57Z</time>
      </trkpt>
      <trkpt lat="28.2990864" lon="-16.8428965">
        <ele>407.2556152</ele>
        <time>2007-11-15T11:06:03Z</time>
      </trkpt>
      <trkpt lat="28.2991113" lon="-16.8430007">
        <ele>407.2556152</ele>
        <time>2007-11-15T11:06:19Z</time>
      </trkpt>
      <trkpt lat="28.2990985" lon="-16.8430416">
        <ele>405.8137207</ele>
        <time>2007-11-15T11:06:22Z</time>
      </trkpt>
      <trkpt lat="28.2990406" lon="-16.8431053">
        <ele>406.7749023</ele>
        <time>2007-11-15T11:06:31Z</time>
      </trkpt>
      <trkpt lat="28.2990324" lon="-16.8431116">
        <ele>406.7749023</ele>
        <time>2007-11-15T11:06:32Z</time>
      </trkpt>
      <trkpt lat="28.2989706" lon="-16.8431608">
        <ele>406.2943115</ele>
        <time>2007-11-15T11:06:38Z</time>
      </trkpt>
      <trkpt lat="28.2988594" lon="-16.8433458">
        <ele>405.3330078</ele>
        <time>2007-11-15T11:06:54Z</time>
      </trkpt>
      <trkpt lat="28.2988528" lon="-16.8433691">
        <ele>405.3330078</ele>
        <time>2007-11-15T11:06:56Z</time>
      </trkpt>
      <trkpt lat="28.2988768" lon="-16.8434659">
        <ele>404.8522949</ele>
        <time>2007-11-15T11:07:04Z</time>
      </trkpt>
      <trkpt lat="28.2988625" lon="-16.8436250">
        <ele>401.4877930</ele>
        <time>2007-11-15T11:07:18Z</time>
      </trkpt>
      <trkpt lat="28.2988585" lon="-16.8436561">
        <ele>401.9685059</ele>
        <time>2007-11-15T11:07:21Z</time>
      </trkpt>
      <trkpt lat="28.2989179" lon="-16.8437527">
        <ele>399.0843506</ele>
        <time>2007-11-15T11:07:34Z</time>
      </trkpt>
      <trkpt lat="28.2989257" lon="-16.8437901">
        <ele>398.6037598</ele>
        <time>2007-11-15T11:07:38Z</time>
      </trkpt>
      <trkpt lat="28.2988884" lon="-16.8438374">
        <ele>397.1617432</ele>
        <time>2007-11-15T11:07:43Z</time>
      </trkpt>
      <trkpt lat="28.2988697" lon="-16.8438534">
        <ele>396.6811523</ele>
        <time>2007-11-15T11:07:45Z</time>
      </trkpt>
      <trkpt lat="28.2989044" lon="-16.8440367">
        <ele>396.6811523</ele>
        <time>2007-11-15T11:07:59Z</time>
      </trkpt>
      <trkpt lat="28.2989382" lon="-16.8441776">
        <ele>394.7585449</ele>
        <time>2007-11-15T11:08:16Z</time>
      </trkpt>
      <trkpt lat="28.2989433" lon="-16.8441817">
        <ele>394.2779541</ele>
        <time>2007-11-15T11:08:21Z</time>
      </trkpt>
      <trkpt lat="28.2989424" lon="-16.8442476">
        <ele>391.8745117</ele>
        <time>2007-11-15T11:08:33Z</time>
      </trkpt>
      <trkpt lat="28.2989330" lon="-16.8443231">
        <ele>390.4326172</ele>
        <time>2007-11-15T11:08:42Z</time>
      </trkpt>
      <trkpt lat="28.2989454" lon="-16.8443701">
        <ele>388.5100098</ele>
        <time>2007-11-15T11:08:48Z</time>
      </trkpt>
      <trkpt lat="28.2989639" lon="-16.8444476">
        <ele>385.6259766</ele>
        <time>2007-11-15T11:08:59Z</time>
      </trkpt>
      <trkpt lat="28.2989728" lon="-16.8445718">
        <ele>383.2226563</ele>
        <time>2007-11-15T11:09:10Z</time>
      </trkpt>
      <trkpt lat="28.2988557" lon="-16.8446219">
        <ele>381.3000488</ele>
        <time>2007-11-15T11:09:20Z</time>
      </trkpt>
      <trkpt lat="28.2987352" lon="-16.8445953">
        <ele>379.3774414</ele>
        <time>2007-11-15T11:09:25Z</time>
      </trkpt>
      <trkpt lat="28.2985645" lon="-16.8445868">
        <ele>377.9354248</ele>
        <time>2007-11-15T11:09:36Z</time>
      </trkpt>
      <trkpt lat="28.2985766" lon="-16.8447019">
        <ele>376.0128174</ele>
        <time>2007-11-15T11:09:52Z</time>
      </trkpt>
      <trkpt lat="28.2986666" lon="-16.8448189">
        <ele>373.1289063</ele>
        <time>2007-11-15T11:10:05Z</time>
      </trkpt>
      <trkpt lat="28.2986755" lon="-16.8448318">
        <ele>372.6481934</ele>
        <time>2007-11-15T11:10:06Z</time>
      </trkpt>
      <trkpt lat="28.2987278" lon="-16.8449360">
        <ele>368.8029785</ele>
        <time>2007-11-15T11:10:20Z</time>
      </trkpt>
      <trkpt lat="28.2987330" lon="-16.8450581">
        <ele>368.3222656</ele>
        <time>2007-11-15T11:10:31Z</time>
      </trkpt>
      <trkpt lat="28.2987356" lon="-16.8450710">
        <ele>367.8415527</ele>
        <time>2007-11-15T11:10:32Z</time>
      </trkpt>
      <trkpt lat="28.2986471" lon="-16.8451480">
        <ele>367.8415527</ele>
        <time>2007-11-15T11:10:44Z</time>
      </trkpt>
      <trkpt lat="28.2984290" lon="-16.8451623">
        <ele>366.3995361</ele>
        <time>2007-11-15T11:10:58Z</time>
      </trkpt>
      <trkpt lat="28.2983006" lon="-16.8451316">
        <ele>365.9189453</ele>
        <time>2007-11-15T11:11:02Z</time>
      </trkpt>
      <trkpt lat="28.2983098" lon="-16.8452235">
        <ele>364.9576416</ele>
        <time>2007-11-15T11:11:15Z</time>
      </trkpt>
      <trkpt lat="28.2984698" lon="-16.8453556">
        <ele>362.5543213</ele>
        <time>2007-11-15T11:11:26Z</time>
      </trkpt>
      <trkpt lat="28.2985023" lon="-16.8454240">
        <ele>361.5931396</ele>
        <time>2007-11-15T11:11:36Z</time>
      </trkpt>
      <trkpt lat="28.2985015" lon="-16.8455342">
        <ele>359.6704102</ele>
        <time>2007-11-15T11:11:45Z</time>
      </trkpt>
      <trkpt lat="28.2986352" lon="-16.8455830">
        <ele>358.2283936</ele>
        <time>2007-11-15T11:12:02Z</time>
      </trkpt>
      <trkpt lat="28.2986358" lon="-16.8455963">
        <ele>358.7089844</ele>
        <time>2007-11-15T11:12:03Z</time>
      </trkpt>
      <trkpt lat="28.2986647" lon="-16.8457551">
        <ele>357.2670898</ele>
        <time>2007-11-15T11:12:14Z</time>
      </trkpt>
      <trkpt lat="28.2986969" lon="-16.8458830">
        <ele>355.8251953</ele>
        <time>2007-11-15T11:12:25Z</time>
      </trkpt>
      <trkpt lat="28.2987517" lon="-16.8459886">
        <ele>355.3444824</ele>
        <time>2007-11-15T11:12:38Z</time>
      </trkpt>
      <trkpt lat="28.2987760" lon="-16.8460837">
        <ele>353.4218750</ele>
        <time>2007-11-15T11:12:50Z</time>
      </trkpt>
      <trkpt lat="28.2987929" lon="-16.8461549">
        <ele>351.9798584</ele>
        <time>2007-11-15T11:13:01Z</time>
      </trkpt>
      <trkpt lat="28.2988122" lon="-16.8462101">
        <ele>350.0572510</ele>
        <time>2007-11-15T11:13:17Z</time>
      </trkpt>
      <trkpt lat="28.2988812" lon="-16.8462108">
        <ele>351.4991455</ele>
        <time>2007-11-15T11:13:47Z</time>
      </trkpt>
      <trkpt lat="28.2988848" lon="-16.8462440">
        <ele>351.0184326</ele>
        <time>2007-11-15T11:13:51Z</time>
      </trkpt>
      <trkpt lat="28.2988398" lon="-16.8463020">
        <ele>351.4991455</ele>
        <time>2007-11-15T11:14:07Z</time>
      </trkpt>
      <trkpt lat="28.2987957" lon="-16.8463730">
        <ele>351.9798584</ele>
        <time>2007-11-15T11:14:17Z</time>
      </trkpt>
      <trkpt lat="28.2987823" lon="-16.8464551">
        <ele>350.0572510</ele>
        <time>2007-11-15T11:14:37Z</time>
      </trkpt>
      <trkpt lat="28.2987554" lon="-16.8465781">
        <ele>348.6152344</ele>
        <time>2007-11-15T11:14:46Z</time>
      </trkpt>
      <trkpt lat="28.2987461" lon="-16.8466118">
        <ele>348.6152344</ele>
        <time>2007-11-15T11:14:49Z</time>
      </trkpt>
      <trkpt lat="28.2987116" lon="-16.8467272">
        <ele>347.1732178</ele>
        <time>2007-11-15T11:15:03Z</time>
      </trkpt>
      <trkpt lat="28.2986181" lon="-16.8467247">
        <ele>346.2120361</ele>
        <time>2007-11-15T11:15:12Z</time>
      </trkpt>
      <trkpt lat="28.2984834" lon="-16.8467852">
        <ele>344.2894287</ele>
        <time>2007-11-15T11:15:25Z</time>
      </trkpt>
      <trkpt lat="28.2982443" lon="-16.8466621">
        <ele>345.2506104</ele>
        <time>2007-11-15T11:15:38Z</time>
      </trkpt>
      <trkpt lat="28.2980026" lon="-16.8465184">
        <ele>343.3278809</ele>
        <time>2007-11-15T11:15:50Z</time>
      </trkpt>
      <trkpt lat="28.2977815" lon="-16.8464005">
        <ele>342.8472900</ele>
        <time>2007-11-15T11:15:59Z</time>
      </trkpt>
      <trkpt lat="28.2975350" lon="-16.8462971">
        <ele>343.3278809</ele>
        <time>2007-11-15T11:16:12Z</time>
      </trkpt>
      <trkpt lat="28.2974383" lon="-16.8462563">
        <ele>342.8472900</ele>
        <time>2007-11-15T11:16:17Z</time>
      </trkpt>
      <trkpt lat="28.2973224" lon="-16.8462150">
        <ele>342.3666992</ele>
        <time>2007-11-15T11:16:22Z</time>
      </trkpt>
      <trkpt lat="28.2971478" lon="-16.8461342">
        <ele>340.9246826</ele>
        <time>2007-11-15T11:16:31Z</time>
      </trkpt>
      <trkpt lat="28.2971553" lon="-16.8460742">
        <ele>340.4440918</ele>
        <time>2007-11-15T11:16:37Z</time>
      </trkpt>
      <trkpt lat="28.2972707" lon="-16.8460208">
        <ele>340.9246826</ele>
        <time>2007-11-15T11:16:51Z</time>
      </trkpt>
      <trkpt lat="28.2972458" lon="-16.8460061">
        <ele>341.4052734</ele>
        <time>2007-11-15T11:16:53Z</time>
      </trkpt>
      <trkpt lat="28.2971063" lon="-16.8458399">
        <ele>343.3278809</ele>
        <time>2007-11-15T11:17:04Z</time>
      </trkpt>
      <trkpt lat="28.2971377" lon="-16.8459720">
        <ele>341.8859863</ele>
        <time>2007-11-15T11:17:14Z</time>
      </trkpt>
      <trkpt lat="28.2971490" lon="-16.8459809">
        <ele>342.3666992</ele>
        <time>2007-11-15T11:17:16Z</time>
      </trkpt>
      <trkpt lat="28.2971795" lon="-16.8460754">
        <ele>340.4440918</ele>
        <time>2007-11-15T11:17:23Z</time>
      </trkpt>
      <trkpt lat="28.2972443" lon="-16.8462414">
        <ele>339.4826660</ele>
        <time>2007-11-15T11:17:30Z</time>
      </trkpt>
      <trkpt lat="28.2973204" lon="-16.8463103">
        <ele>340.4440918</ele>
        <time>2007-11-15T11:17:46Z</time>
      </trkpt>
      <trkpt lat="28.2974033" lon="-16.8464423">
        <ele>339.4826660</ele>
        <time>2007-11-15T11:17:59Z</time>
      </trkpt>
      <trkpt lat="28.2974887" lon="-16.8465470">
        <ele>338.5214844</ele>
        <time>2007-11-15T11:18:09Z</time>
      </trkpt>
      <trkpt lat="28.2975836" lon="-16.8467538">
        <ele>340.4440918</ele>
        <time>2007-11-15T11:18:29Z</time>
      </trkpt>
      <trkpt lat="28.2975736" lon="-16.8468403">
        <ele>342.3666992</ele>
        <time>2007-11-15T11:18:42Z</time>
      </trkpt>
      <trkpt lat="28.2975478" lon="-16.8470721">
        <ele>350.0572510</ele>
        <time>2007-11-15T11:21:01Z</time>
      </trkpt>
      <trkpt lat="28.2975028" lon="-16.8471263">
        <ele>353.4218750</ele>
        <time>2007-11-15T11:21:53Z</time>
      </trkpt>
      <trkpt lat="28.2974497" lon="-16.8472555">
        <ele>352.4605713</ele>
        <time>2007-11-15T11:22:06Z</time>
      </trkpt>
      <trkpt lat="28.2972226" lon="-16.8473705">
        <ele>353.4218750</ele>
        <time>2007-11-15T11:22:19Z</time>
      </trkpt>
      <trkpt lat="28.2967831" lon="-16.8472182">
        <ele>351.9798584</ele>
        <time>2007-11-15T11:22:34Z</time>
      </trkpt>
      <trkpt lat="28.2966775" lon="-16.8471641">
        <ele>351.4991455</ele>
        <time>2007-11-15T11:22:39Z</time>
      </trkpt>
      <trkpt lat="28.2962347" lon="-16.8471112">
        <ele>351.4991455</ele>
        <time>2007-11-15T11:22:53Z</time>
      </trkpt>
      <trkpt lat="28.2963412" lon="-16.8471955">
        <ele>351.9798584</ele>
        <time>2007-11-15T11:23:05Z</time>
      </trkpt>
      <trkpt lat="28.2963932" lon="-16.8471914">
        <ele>351.9798584</ele>
        <time>2007-11-15T11:23:09Z</time>
      </trkpt>
      <trkpt lat="28.2967204" lon="-16.8474021">
        <ele>353.4218750</ele>
        <time>2007-11-15T11:23:29Z</time>
      </trkpt>
      <trkpt lat="28.2966947" lon="-16.8473111">
        <ele>354.3831787</ele>
        <time>2007-11-15T11:23:56Z</time>
      </trkpt>
      <trkpt lat="28.2965569" lon="-16.8472435">
        <ele>353.4218750</ele>
        <time>2007-11-15T11:24:05Z</time>
      </trkpt>
      <trkpt lat="28.2963300" lon="-16.8470514">
        <ele>352.4605713</ele>
        <time>2007-11-15T11:24:16Z</time>
      </trkpt>
      <trkpt lat="28.2961233" lon="-16.8470044">
        <ele>350.5378418</ele>
        <time>2007-11-15T11:24:28Z</time>
      </trkpt>
      <trkpt lat="28.2961317" lon="-16.8471508">
        <ele>350.5378418</ele>
        <time>2007-11-15T11:24:38Z</time>
      </trkpt>
      <trkpt lat="28.2962381" lon="-16.8473658">
        <ele>350.5378418</ele>
        <time>2007-11-15T11:24:48Z</time>
      </trkpt>
      <trkpt lat="28.2962434" lon="-16.8474233">
        <ele>350.5378418</ele>
        <time>2007-11-15T11:24:55Z</time>
      </trkpt>
      <trkpt lat="28.2962907" lon="-16.8475364">
        <ele>351.4991455</ele>
        <time>2007-11-15T11:25:11Z</time>
      </trkpt>
      <trkpt lat="28.2963757" lon="-16.8476756">
        <ele>351.9798584</ele>
        <time>2007-11-15T11:25:19Z</time>
      </trkpt>
      <trkpt lat="28.2964940" lon="-16.8478657">
        <ele>351.9798584</ele>
        <time>2007-11-15T11:25:25Z</time>
      </trkpt>
      <trkpt lat="28.2965961" lon="-16.8481166">
        <ele>351.0184326</ele>
        <time>2007-11-15T11:25:31Z</time>
      </trkpt>
      <trkpt lat="28.2968058" lon="-16.8483771">
        <ele>350.5378418</ele>
        <time>2007-11-15T11:25:44Z</time>
      </trkpt>
      <trkpt lat="28.2968319" lon="-16.8484155">
        <ele>350.5378418</ele>
        <time>2007-11-15T11:25:45Z</time>
      </trkpt>
      <trkpt lat="28.2969239" lon="-16.8484772">
        <ele>348.6152344</ele>
        <time>2007-11-15T11:25:58Z</time>
      </trkpt>
      <trkpt lat="28.2969252" lon="-16.8485169">
        <ele>349.0958252</ele>
        <time>2007-11-15T11:26:04Z</time>
      </trkpt>
      <trkpt lat="28.2969252" lon="-16.8485930">
        <ele>346.6926270</ele>
        <time>2007-11-15T11:26:15Z</time>
      </trkpt>
      <trkpt lat="28.2969211" lon="-16.8486178">
        <ele>346.2120361</ele>
        <time>2007-11-15T11:26:17Z</time>
      </trkpt>
      <trkpt lat="28.2969419" lon="-16.8487180">
        <ele>345.7313232</ele>
        <time>2007-11-15T11:26:21Z</time>
      </trkpt>
      <trkpt lat="28.2969495" lon="-16.8487834">
        <ele>345.7313232</ele>
        <time>2007-11-15T11:26:23Z</time>
      </trkpt>
      <trkpt lat="28.2971770" lon="-16.8491650">
        <ele>345.7313232</ele>
        <time>2007-11-15T11:26:34Z</time>
      </trkpt>
      <trkpt lat="28.2972908" lon="-16.8494426">
        <ele>343.3278809</ele>
        <time>2007-11-15T11:27:01Z</time>
      </trkpt>
      <trkpt lat="28.2972743" lon="-16.8496080">
        <ele>343.3278809</ele>
        <time>2007-11-15T11:27:12Z</time>
      </trkpt>
      <trkpt lat="28.2972876" lon="-16.8497539">
        <ele>343.3278809</ele>
        <time>2007-11-15T11:27:32Z</time>
      </trkpt>
      <trkpt lat="28.2972329" lon="-16.8498957">
        <ele>343.3278809</ele>
        <time>2007-11-15T11:27:50Z</time>
      </trkpt>
      <trkpt lat="28.2971925" lon="-16.8499699">
        <ele>340.9246826</ele>
        <time>2007-11-15T11:28:02Z</time>
      </trkpt>
      <trkpt lat="28.2971078" lon="-16.8500154">
        <ele>339.0020752</ele>
        <time>2007-11-15T11:28:12Z</time>
      </trkpt>
      <trkpt lat="28.2969884" lon="-16.8500498">
        <ele>338.5214844</ele>
        <time>2007-11-15T11:28:21Z</time>
      </trkpt>
      <trkpt lat="28.2969681" lon="-16.8501845">
        <ele>337.5600586</ele>
        <time>2007-11-15T11:28:34Z</time>
      </trkpt>
      <trkpt lat="28.2969593" lon="-16.8502889">
        <ele>338.0407715</ele>
        <time>2007-11-15T11:28:50Z</time>
      </trkpt>
      <trkpt lat="28.2969887" lon="-16.8504140">
        <ele>336.5988770</ele>
        <time>2007-11-15T11:29:34Z</time>
      </trkpt>
      <trkpt lat="28.2969273" lon="-16.8503731">
        <ele>335.6373291</ele>
        <time>2007-11-15T11:29:48Z</time>
      </trkpt>
      <trkpt lat="28.2967442" lon="-16.8502304">
        <ele>335.6373291</ele>
        <time>2007-11-15T11:29:56Z</time>
      </trkpt>
      <trkpt lat="28.2965842" lon="-16.8500068">
        <ele>333.7147217</ele>
        <time>2007-11-15T11:30:14Z</time>
      </trkpt>
      <trkpt lat="28.2964669" lon="-16.8499534">
        <ele>333.2341309</ele>
        <time>2007-11-15T11:30:19Z</time>
      </trkpt>
      <trkpt lat="28.2963378" lon="-16.8499674">
        <ele>334.1954346</ele>
        <time>2007-11-15T11:30:26Z</time>
      </trkpt>
      <trkpt lat="28.2962285" lon="-16.8500005">
        <ele>334.1954346</ele>
        <time>2007-11-15T11:30:33Z</time>
      </trkpt>
      <trkpt lat="28.2961522" lon="-16.8499037">
        <ele>334.6761475</ele>
        <time>2007-11-15T11:30:48Z</time>
      </trkpt>
      <trkpt lat="28.2959716" lon="-16.8499115">
        <ele>335.1567383</ele>
        <time>2007-11-15T11:30:59Z</time>
      </trkpt>
      <trkpt lat="28.2959574" lon="-16.8499017">
        <ele>335.6373291</ele>
        <time>2007-11-15T11:31:00Z</time>
      </trkpt>
      <trkpt lat="28.2957990" lon="-16.8497859">
        <ele>335.6373291</ele>
        <time>2007-11-15T11:31:13Z</time>
      </trkpt>
      <trkpt lat="28.2957255" lon="-16.8497111">
        <ele>337.0794678</ele>
        <time>2007-11-15T11:31:23Z</time>
      </trkpt>
      <trkpt lat="28.2956896" lon="-16.8496674">
        <ele>337.0794678</ele>
        <time>2007-11-15T11:31:26Z</time>
      </trkpt>
      <trkpt lat="28.2955743" lon="-16.8496468">
        <ele>337.0794678</ele>
        <time>2007-11-15T11:31:31Z</time>
      </trkpt>
      <trkpt lat="28.2954016" lon="-16.8497305">
        <ele>337.5600586</ele>
        <time>2007-11-15T11:31:48Z</time>
      </trkpt>
      <trkpt lat="28.2952958" lon="-16.8497167">
        <ele>337.5600586</ele>
        <time>2007-11-15T11:31:59Z</time>
      </trkpt>
      <trkpt lat="28.2952334" lon="-16.8497354">
        <ele>339.4826660</ele>
        <time>2007-11-15T11:32:08Z</time>
      </trkpt>
      <trkpt lat="28.2950344" lon="-16.8495458">
        <ele>339.9633789</ele>
        <time>2007-11-15T11:32:19Z</time>
      </trkpt>
      <trkpt lat="28.2949385" lon="-16.8492806">
        <ele>340.9246826</ele>
        <time>2007-11-15T11:32:33Z</time>
      </trkpt>
      <trkpt lat="28.2950236" lon="-16.8494183">
        <ele>339.4826660</ele>
        <time>2007-11-15T11:32:54Z</time>
      </trkpt>
      <trkpt lat="28.2949941" lon="-16.8494547">
        <ele>340.9246826</ele>
        <time>2007-11-15T11:33:04Z</time>
      </trkpt>
      <trkpt lat="28.2949004" lon="-16.8494697">
        <ele>338.5214844</ele>
        <time>2007-11-15T11:33:16Z</time>
      </trkpt>
      <trkpt lat="28.2948198" lon="-16.8495493">
        <ele>337.0794678</ele>
        <time>2007-11-15T11:33:29Z</time>
      </trkpt>
      <trkpt lat="28.2949236" lon="-16.8498022">
        <ele>336.5988770</ele>
        <time>2007-11-15T11:33:40Z</time>
      </trkpt>
      <trkpt lat="28.2951043" lon="-16.8501097">
        <ele>336.1181641</ele>
        <time>2007-11-15T11:33:51Z</time>
      </trkpt>
      <trkpt lat="28.2952585" lon="-16.8503065">
        <ele>336.1181641</ele>
        <time>2007-11-15T11:34:04Z</time>
      </trkpt>
      <trkpt lat="28.2951897" lon="-16.8503599">
        <ele>337.5600586</ele>
        <time>2007-11-15T11:34:32Z</time>
      </trkpt>
      <trkpt lat="28.2950666" lon="-16.8504708">
        <ele>336.1181641</ele>
        <time>2007-11-15T11:34:45Z</time>
      </trkpt>
      <trkpt lat="28.2950488" lon="-16.8504715">
        <ele>335.6373291</ele>
        <time>2007-11-15T11:34:46Z</time>
      </trkpt>
      <trkpt lat="28.2948532" lon="-16.8505041">
        <ele>333.2341309</ele>
        <time>2007-11-15T11:34:56Z</time>
      </trkpt>
      <trkpt lat="28.2947463" lon="-16.8505775">
        <ele>333.2341309</ele>
        <time>2007-11-15T11:35:06Z</time>
      </trkpt>
      <trkpt lat="28.2946283" lon="-16.8505332">
        <ele>334.1954346</ele>
        <time>2007-11-15T11:35:20Z</time>
      </trkpt>
      <trkpt lat="28.2946250" lon="-16.8505973">
        <ele>336.1181641</ele>
        <time>2007-11-15T11:35:43Z</time>
      </trkpt>
      <trkpt lat="28.2945765" lon="-16.8506061">
        <ele>335.6373291</ele>
        <time>2007-11-15T11:35:53Z</time>
      </trkpt>
      <trkpt lat="28.2947818" lon="-16.8505247">
        <ele>337.5600586</ele>
        <time>2007-11-15T11:36:18Z</time>
      </trkpt>
      <trkpt lat="28.2946878" lon="-16.8504808">
        <ele>338.5214844</ele>
        <time>2007-11-15T11:36:24Z</time>
      </trkpt>
      <trkpt lat="28.2944979" lon="-16.8504590">
        <ele>341.8859863</ele>
        <time>2007-11-15T11:36:34Z</time>
      </trkpt>
      <trkpt lat="28.2944417" lon="-16.8505251">
        <ele>341.8859863</ele>
        <time>2007-11-15T11:36:46Z</time>
      </trkpt>
      <trkpt lat="28.2945624" lon="-16.8505901">
        <ele>341.4052734</ele>
        <time>2007-11-15T11:37:00Z</time>
      </trkpt>
      <trkpt lat="28.2945370" lon="-16.8506009">
        <ele>340.9246826</ele>
        <time>2007-11-15T11:37:10Z</time>
      </trkpt>
      <trkpt lat="28.2944822" lon="-16.8506051">
        <ele>340.9246826</ele>
        <time>2007-11-15T11:37:14Z</time>
      </trkpt>
      <trkpt lat="28.2944279" lon="-16.8506612">
        <ele>341.8859863</ele>
        <time>2007-11-15T11:37:23Z</time>
      </trkpt>
      <trkpt lat="28.2943957" lon="-16.8507025">
        <ele>341.4052734</ele>
        <time>2007-11-15T11:37:28Z</time>
      </trkpt>
      <trkpt lat="28.2944101" lon="-16.8507601">
        <ele>340.4440918</ele>
        <time>2007-11-15T11:37:42Z</time>
      </trkpt>
      <trkpt lat="28.2945222" lon="-16.8508502">
        <ele>339.4826660</ele>
        <time>2007-11-15T11:37:56Z</time>
      </trkpt>
      <trkpt lat="28.2946286" lon="-16.8509169">
        <ele>338.5214844</ele>
        <time>2007-11-15T11:38:04Z</time>
      </trkpt>
      <trkpt lat="28.2946672" lon="-16.8510284">
        <ele>335.6373291</ele>
        <time>2007-11-15T11:38:19Z</time>
      </trkpt>
      <trkpt lat="28.2946709" lon="-16.8511097">
        <ele>334.6761475</ele>
        <time>2007-11-15T11:38:30Z</time>
      </trkpt>
      <trkpt lat="28.2946393" lon="-16.8511486">
        <ele>333.7147217</ele>
        <time>2007-11-15T11:38:38Z</time>
      </trkpt>
      <trkpt lat="28.2946656" lon="-16.8511784">
        <ele>332.7535400</ele>
        <time>2007-11-15T11:38:43Z</time>
      </trkpt>
      <trkpt lat="28.2947463" lon="-16.8512345">
        <ele>332.2728271</ele>
        <time>2007-11-15T11:38:54Z</time>
      </trkpt>
      <trkpt lat="28.2947604" lon="-16.8512333">
        <ele>332.2728271</ele>
        <time>2007-11-15T11:38:55Z</time>
      </trkpt>
      <trkpt lat="28.2949641" lon="-16.8513260">
        <ele>328.9083252</ele>
        <time>2007-11-15T11:39:09Z</time>
      </trkpt>
      <trkpt lat="28.2954109" lon="-16.8517566">
        <ele>325.0629883</ele>
        <time>2007-11-15T11:39:53Z</time>
      </trkpt>
      <trkpt lat="28.2953939" lon="-16.8517632">
        <ele>325.0629883</ele>
        <time>2007-11-15T11:39:54Z</time>
      </trkpt>
      <trkpt lat="28.2952958" lon="-16.8518592">
        <ele>325.5435791</ele>
        <time>2007-11-15T11:40:06Z</time>
      </trkpt>
      <trkpt lat="28.2952814" lon="-16.8520058">
        <ele>325.0629883</ele>
        <time>2007-11-15T11:40:19Z</time>
      </trkpt>
      <trkpt lat="28.2957724" lon="-16.8527828">
        <ele>325.0629883</ele>
        <time>2007-11-15T11:40:46Z</time>
      </trkpt>
      <trkpt lat="28.2958072" lon="-16.8528455">
        <ele>324.1015625</ele>
        <time>2007-11-15T11:40:52Z</time>
      </trkpt>
      <trkpt lat="28.2960521" lon="-16.8530816">
        <ele>323.1403809</ele>
        <time>2007-11-15T11:41:03Z</time>
      </trkpt>
      <trkpt lat="28.2962106" lon="-16.8532511">
        <ele>319.7756348</ele>
        <time>2007-11-15T11:41:16Z</time>
      </trkpt>
      <trkpt lat="28.2962182" lon="-16.8532719">
        <ele>319.7756348</ele>
        <time>2007-11-15T11:41:17Z</time>
      </trkpt>
      <trkpt lat="28.2960942" lon="-16.8532996">
        <ele>317.8530273</ele>
        <time>2007-11-15T11:41:37Z</time>
      </trkpt>
      <trkpt lat="28.2960179" lon="-16.8533832">
        <ele>318.3336182</ele>
        <time>2007-11-15T11:41:47Z</time>
      </trkpt>
      <trkpt lat="28.2959953" lon="-16.8533625">
        <ele>317.3724365</ele>
        <time>2007-11-15T11:41:51Z</time>
      </trkpt>
      <trkpt lat="28.2959177" lon="-16.8533925">
        <ele>317.3724365</ele>
        <time>2007-11-15T11:42:02Z</time>
      </trkpt>
      <trkpt lat="28.2957601" lon="-16.8533620">
        <ele>316.4110107</ele>
        <time>2007-11-15T11:42:14Z</time>
      </trkpt>
      <trkpt lat="28.2957561" lon="-16.8533241">
        <ele>313.0465088</ele>
        <time>2007-11-15T11:42:23Z</time>
      </trkpt>
      <trkpt lat="28.2956748" lon="-16.8532866">
        <ele>309.6818848</ele>
        <time>2007-11-15T11:42:37Z</time>
      </trkpt>
      <trkpt lat="28.2955883" lon="-16.8532159">
        <ele>306.7978516</ele>
        <time>2007-11-15T11:42:45Z</time>
      </trkpt>
      <trkpt lat="28.2955805" lon="-16.8532330">
        <ele>303.4332275</ele>
        <time>2007-11-15T11:43:04Z</time>
      </trkpt>
      <trkpt lat="28.2956207" lon="-16.8532988">
        <ele>300.0687256</ele>
        <time>2007-11-15T11:43:23Z</time>
      </trkpt>
      <trkpt lat="28.2955872" lon="-16.8532931">
        <ele>298.1461182</ele>
        <time>2007-11-15T11:43:40Z</time>
      </trkpt>
      <trkpt lat="28.2954908" lon="-16.8532651">
        <ele>296.7041016</ele>
        <time>2007-11-15T11:43:52Z</time>
      </trkpt>
      <trkpt lat="28.2954619" lon="-16.8532324">
        <ele>296.2235107</ele>
        <time>2007-11-15T11:44:07Z</time>
      </trkpt>
      <trkpt lat="28.2953653" lon="-16.8532283">
        <ele>294.3007813</ele>
        <time>2007-11-15T11:44:18Z</time>
      </trkpt>
      <trkpt lat="28.2950790" lon="-16.8532758">
        <ele>292.3781738</ele>
        <time>2007-11-15T11:44:30Z</time>
      </trkpt>
      <trkpt lat="28.2949444" lon="-16.8533287">
        <ele>289.0135498</ele>
        <time>2007-11-15T11:44:58Z</time>
      </trkpt>
      <trkpt lat="28.2949132" lon="-16.8533437">
        <ele>289.4941406</ele>
        <time>2007-11-15T11:45:02Z</time>
      </trkpt>
      <trkpt lat="28.2948698" lon="-16.8533506">
        <ele>289.0135498</ele>
        <time>2007-11-15T11:45:05Z</time>
      </trkpt>
      <trkpt lat="28.2948279" lon="-16.8533918">
        <ele>288.5329590</ele>
        <time>2007-11-15T11:45:14Z</time>
      </trkpt>
      <trkpt lat="28.2947681" lon="-16.8534149">
        <ele>288.5329590</ele>
        <time>2007-11-15T11:45:20Z</time>
      </trkpt>
      <trkpt lat="28.2947155" lon="-16.8534443">
        <ele>287.5714111</ele>
        <time>2007-11-15T11:45:24Z</time>
      </trkpt>
      <trkpt lat="28.2947553" lon="-16.8535594">
        <ele>286.1295166</ele>
        <time>2007-11-15T11:45:33Z</time>
      </trkpt>
      <trkpt lat="28.2947438" lon="-16.8535705">
        <ele>286.1295166</ele>
        <time>2007-11-15T11:45:35Z</time>
      </trkpt>
      <trkpt lat="28.2947642" lon="-16.8536210">
        <ele>284.6876221</ele>
        <time>2007-11-15T11:45:53Z</time>
      </trkpt>
      <trkpt lat="28.2947232" lon="-16.8537826">
        <ele>282.2843018</ele>
        <time>2007-11-15T11:46:17Z</time>
      </trkpt>
      <trkpt lat="28.2947065" lon="-16.8537908">
        <ele>282.2843018</ele>
        <time>2007-11-15T11:46:21Z</time>
      </trkpt>
      <trkpt lat="28.2946594" lon="-16.8537974">
        <ele>280.8424072</ele>
        <time>2007-11-15T11:46:24Z</time>
      </trkpt>
      <trkpt lat="28.2946195" lon="-16.8538878">
        <ele>279.4002686</ele>
        <time>2007-11-15T11:46:36Z</time>
      </trkpt>
      <trkpt lat="28.2945834" lon="-16.8539477">
        <ele>276.5163574</ele>
        <time>2007-11-15T11:46:53Z</time>
      </trkpt>
      <trkpt lat="28.2945391" lon="-16.8539711">
        <ele>275.0744629</ele>
        <time>2007-11-15T11:47:06Z</time>
      </trkpt>
      <trkpt lat="28.2945251" lon="-16.8540602">
        <ele>272.1904297</ele>
        <time>2007-11-15T11:47:21Z</time>
      </trkpt>
      <trkpt lat="28.2945233" lon="-16.8541175">
        <ele>270.7484131</ele>
        <time>2007-11-15T11:47:26Z</time>
      </trkpt>
      <trkpt lat="28.2944927" lon="-16.8542700">
        <ele>269.3065186</ele>
        <time>2007-11-15T11:47:38Z</time>
      </trkpt>
      <trkpt lat="28.2944344" lon="-16.8543856">
        <ele>267.8645020</ele>
        <time>2007-11-15T11:47:51Z</time>
      </trkpt>
      <trkpt lat="28.2943041" lon="-16.8544560">
        <ele>266.9031982</ele>
        <time>2007-11-15T11:48:04Z</time>
      </trkpt>
      <trkpt lat="28.2942341" lon="-16.8544509">
        <ele>266.9031982</ele>
        <time>2007-11-15T11:48:09Z</time>
      </trkpt>
      <trkpt lat="28.2941103" lon="-16.8544605">
        <ele>266.4224854</ele>
        <time>2007-11-15T11:48:21Z</time>
      </trkpt>
      <trkpt lat="28.2939768" lon="-16.8544876">
        <ele>265.9418945</ele>
        <time>2007-11-15T11:48:33Z</time>
      </trkpt>
      <trkpt lat="28.2939155" lon="-16.8545030">
        <ele>266.4224854</ele>
        <time>2007-11-15T11:48:43Z</time>
      </trkpt>
      <trkpt lat="28.2938906" lon="-16.8546718">
        <ele>263.0578613</ele>
        <time>2007-11-15T11:49:12Z</time>
      </trkpt>
      <trkpt lat="28.2940580" lon="-16.8548413">
        <ele>260.6545410</ele>
        <time>2007-11-15T11:49:25Z</time>
      </trkpt>
      <trkpt lat="28.2941210" lon="-16.8548797">
        <ele>257.7707520</ele>
        <time>2007-11-15T11:49:40Z</time>
      </trkpt>
      <trkpt lat="28.2941062" lon="-16.8549471">
        <ele>256.3287354</ele>
        <time>2007-11-15T11:49:50Z</time>
      </trkpt>
      <trkpt lat="28.2941975" lon="-16.8551134">
        <ele>255.3673096</ele>
        <time>2007-11-15T11:50:06Z</time>
      </trkpt>
      <trkpt lat="28.2941181" lon="-16.8551495">
        <ele>253.9254150</ele>
        <time>2007-11-15T11:50:15Z</time>
      </trkpt>
      <trkpt lat="28.2941010" lon="-16.8552055">
        <ele>253.9254150</ele>
        <time>2007-11-15T11:50:26Z</time>
      </trkpt>
      <trkpt lat="28.2940688" lon="-16.8553299">
        <ele>252.4833984</ele>
        <time>2007-11-15T11:50:35Z</time>
      </trkpt>
      <trkpt lat="28.2940502" lon="-16.8555679">
        <ele>252.4833984</ele>
        <time>2007-11-15T11:50:46Z</time>
      </trkpt>
      <trkpt lat="28.2941026" lon="-16.8557482">
        <ele>250.5607910</ele>
        <time>2007-11-15T11:50:56Z</time>
      </trkpt>
      <trkpt lat="28.2941997" lon="-16.8559934">
        <ele>247.6767578</ele>
        <time>2007-11-15T11:51:09Z</time>
      </trkpt>
      <trkpt lat="28.2945768" lon="-16.8563809">
        <ele>244.3122559</ele>
        <time>2007-11-15T11:51:34Z</time>
      </trkpt>
      <trkpt lat="28.2945784" lon="-16.8564457">
        <ele>244.3122559</ele>
        <time>2007-11-15T11:51:41Z</time>
      </trkpt>
      <trkpt lat="28.2946920" lon="-16.8565066">
        <ele>243.8315430</ele>
        <time>2007-11-15T11:51:53Z</time>
      </trkpt>
      <trkpt lat="28.2948361" lon="-16.8565996">
        <ele>243.3508301</ele>
        <time>2007-11-15T11:52:08Z</time>
      </trkpt>
      <trkpt lat="28.2949546" lon="-16.8566799">
        <ele>242.8702393</ele>
        <time>2007-11-15T11:52:21Z</time>
      </trkpt>
      <trkpt lat="28.2950052" lon="-16.8566461">
        <ele>242.3896484</ele>
        <time>2007-11-15T11:52:37Z</time>
      </trkpt>
      <trkpt lat="28.2951934" lon="-16.8564555">
        <ele>239.0249023</ele>
        <time>2007-11-15T11:52:55Z</time>
      </trkpt>
      <trkpt lat="28.2951897" lon="-16.8564408">
        <ele>239.0249023</ele>
        <time>2007-11-15T11:52:56Z</time>
      </trkpt>
      <trkpt lat="28.2953131" lon="-16.8563178">
        <ele>237.5828857</ele>
        <time>2007-11-15T11:53:05Z</time>
      </trkpt>
      <trkpt lat="28.2953085" lon="-16.8564078">
        <ele>236.1409912</ele>
        <time>2007-11-15T11:53:15Z</time>
      </trkpt>
      <trkpt lat="28.2952721" lon="-16.8565226">
        <ele>234.2183838</ele>
        <time>2007-11-15T11:53:27Z</time>
      </trkpt>
      <trkpt lat="28.2952349" lon="-16.8565823">
        <ele>233.7376709</ele>
        <time>2007-11-15T11:53:32Z</time>
      </trkpt>
      <trkpt lat="28.2951112" lon="-16.8565434">
        <ele>232.7764893</ele>
        <time>2007-11-15T11:53:45Z</time>
      </trkpt>
      <trkpt lat="28.2950752" lon="-16.8566118">
        <ele>230.8537598</ele>
        <time>2007-11-15T11:53:58Z</time>
      </trkpt>
      <trkpt lat="28.2949889" lon="-16.8566165">
        <ele>228.4504395</ele>
        <time>2007-11-15T11:54:07Z</time>
      </trkpt>
      <trkpt lat="28.2949335" lon="-16.8566193">
        <ele>228.4504395</ele>
        <time>2007-11-15T11:54:13Z</time>
      </trkpt>
      <trkpt lat="28.2947690" lon="-16.8566783">
        <ele>226.0471191</ele>
        <time>2007-11-15T11:54:31Z</time>
      </trkpt>
      <trkpt lat="28.2946258" lon="-16.8566027">
        <ele>222.6824951</ele>
        <time>2007-11-15T11:54:39Z</time>
      </trkpt>
      <trkpt lat="28.2945931" lon="-16.8565799">
        <ele>222.2017822</ele>
        <time>2007-11-15T11:54:40Z</time>
      </trkpt>
      <trkpt lat="28.2944422" lon="-16.8564524">
        <ele>220.2791748</ele>
        <time>2007-11-15T11:54:46Z</time>
      </trkpt>
      <trkpt lat="28.2944802" lon="-16.8564993">
        <ele>217.8759766</ele>
        <time>2007-11-15T11:54:57Z</time>
      </trkpt>
      <trkpt lat="28.2943771" lon="-16.8564387">
        <ele>215.4726563</ele>
        <time>2007-11-15T11:55:14Z</time>
      </trkpt>
      <trkpt lat="28.2943183" lon="-16.8564440">
        <ele>214.5112305</ele>
        <time>2007-11-15T11:55:23Z</time>
      </trkpt>
      <trkpt lat="28.2944184" lon="-16.8565864">
        <ele>214.0306396</ele>
        <time>2007-11-15T11:55:29Z</time>
      </trkpt>
      <trkpt lat="28.2946589" lon="-16.8569802">
        <ele>212.5886230</ele>
        <time>2007-11-15T11:55:38Z</time>
      </trkpt>
      <trkpt lat="28.2944983" lon="-16.8568507">
        <ele>212.1080322</ele>
        <time>2007-11-15T11:55:48Z</time>
      </trkpt>
      <trkpt lat="28.2945594" lon="-16.8569117">
        <ele>211.1467285</ele>
        <time>2007-11-15T11:55:54Z</time>
      </trkpt>
      <trkpt lat="28.2946915" lon="-16.8569450">
        <ele>209.7048340</ele>
        <time>2007-11-15T11:56:03Z</time>
      </trkpt>
      <trkpt lat="28.2943586" lon="-16.8567363">
        <ele>210.1854248</ele>
        <time>2007-11-15T11:56:10Z</time>
      </trkpt>
      <trkpt lat="28.2940645" lon="-16.8565537">
        <ele>210.1854248</ele>
        <time>2007-11-15T11:56:16Z</time>
      </trkpt>
      <trkpt lat="28.2936664" lon="-16.8563779">
        <ele>207.7821045</ele>
        <time>2007-11-15T11:56:29Z</time>
      </trkpt>
      <trkpt lat="28.2934610" lon="-16.8562939">
        <ele>206.3400879</ele>
        <time>2007-11-15T11:56:38Z</time>
      </trkpt>
      <trkpt lat="28.2935094" lon="-16.8564824">
        <ele>204.8980713</ele>
        <time>2007-11-15T11:56:45Z</time>
      </trkpt>
      <trkpt lat="28.2936708" lon="-16.8567296">
        <ele>203.9368896</ele>
        <time>2007-11-15T11:56:49Z</time>
      </trkpt>
      <trkpt lat="28.2937025" lon="-16.8568698">
        <ele>200.0916748</ele>
        <time>2007-11-15T11:56:59Z</time>
      </trkpt>
      <trkpt lat="28.2937144" lon="-16.8569023">
        <ele>199.6108398</ele>
        <time>2007-11-15T11:57:00Z</time>
      </trkpt>
      <trkpt lat="28.2937021" lon="-16.8568967">
        <ele>199.6108398</ele>
        <time>2007-11-15T11:57:01Z</time>
      </trkpt>
      <trkpt lat="28.2937061" lon="-16.8569300">
        <ele>199.6108398</ele>
        <time>2007-11-15T11:57:14Z</time>
      </trkpt>
      <trkpt lat="28.2935839" lon="-16.8568808">
        <ele>199.6108398</ele>
        <time>2007-11-15T11:57:21Z</time>
      </trkpt>
      <trkpt lat="28.2934196" lon="-16.8567386">
        <ele>201.5335693</ele>
        <time>2007-11-15T11:57:26Z</time>
      </trkpt>
      <trkpt lat="28.2933649" lon="-16.8567084">
        <ele>201.5335693</ele>
        <time>2007-11-15T11:57:28Z</time>
      </trkpt>
      <trkpt lat="28.2931225" lon="-16.8564774">
        <ele>200.5722656</ele>
        <time>2007-11-15T11:57:31Z</time>
      </trkpt>
      <trkpt lat="28.2931945" lon="-16.8565879">
        <ele>199.6108398</ele>
        <time>2007-11-15T11:57:36Z</time>
      </trkpt>
      <trkpt lat="28.2931805" lon="-16.8566447">
        <ele>197.2075195</ele>
        <time>2007-11-15T11:57:48Z</time>
      </trkpt>
      <trkpt lat="28.2932043" lon="-16.8566798">
        <ele>196.7269287</ele>
        <time>2007-11-15T11:57:50Z</time>
      </trkpt>
      <trkpt lat="28.2931400" lon="-16.8566058">
        <ele>193.8430176</ele>
        <time>2007-11-15T11:58:02Z</time>
      </trkpt>
      <trkpt lat="28.2931364" lon="-16.8566131">
        <ele>193.3623047</ele>
        <time>2007-11-15T11:58:05Z</time>
      </trkpt>
      <trkpt lat="28.2930350" lon="-16.8564492">
        <ele>192.8817139</ele>
        <time>2007-11-15T11:58:11Z</time>
      </trkpt>
      <trkpt lat="28.2931343" lon="-16.8564937">
        <ele>192.4011230</ele>
        <time>2007-11-15T11:58:18Z</time>
      </trkpt>
      <trkpt lat="28.2930121" lon="-16.8564568">
        <ele>190.4783936</ele>
        <time>2007-11-15T11:58:29Z</time>
      </trkpt>
      <trkpt lat="28.2928654" lon="-16.8563971">
        <ele>189.5169678</ele>
        <time>2007-11-15T11:58:34Z</time>
      </trkpt>
      <trkpt lat="28.2924991" lon="-16.8562108">
        <ele>188.0750732</ele>
        <time>2007-11-15T11:58:40Z</time>
      </trkpt>
      <trkpt lat="28.2924490" lon="-16.8562178">
        <ele>187.1137695</ele>
        <time>2007-11-15T11:58:47Z</time>
      </trkpt>
      <trkpt lat="28.2914248" lon="-16.8562880">
        <ele>185.1911621</ele>
        <time>2007-11-15T11:59:28Z</time>
      </trkpt>
      <trkpt lat="28.2912349" lon="-16.8575278">
        <ele>156.3515625</ele>
        <time>2007-11-15T12:11:08Z</time>
      </trkpt>
      <trkpt lat="28.2911448" lon="-16.8575982">
        <ele>156.3515625</ele>
        <time>2007-11-15T12:11:10Z</time>
      </trkpt>
      <trkpt lat="28.2912891" lon="-16.8577315">
        <ele>156.8321533</ele>
        <time>2007-11-15T12:11:13Z</time>
      </trkpt>
      <trkpt lat="28.2913219" lon="-16.8578345">
        <ele>156.3515625</ele>
        <time>2007-11-15T12:11:21Z</time>
      </trkpt>
      <trkpt lat="28.2911224" lon="-16.8577904">
        <ele>154.9095459</ele>
        <time>2007-11-15T12:11:35Z</time>
      </trkpt>
      <trkpt lat="28.2910924" lon="-16.8578591">
        <ele>155.3902588</ele>
        <time>2007-11-15T12:11:37Z</time>
      </trkpt>
      <trkpt lat="28.2910421" lon="-16.8579829">
        <ele>155.3902588</ele>
        <time>2007-11-15T12:11:46Z</time>
      </trkpt>
      <trkpt lat="28.2911753" lon="-16.8575973">
        <ele>154.9095459</ele>
        <time>2007-11-15T12:11:58Z</time>
      </trkpt>
      <trkpt lat="28.2910915" lon="-16.8575204">
        <ele>155.8709717</ele>
        <time>2007-11-15T12:12:20Z</time>
      </trkpt>
      <trkpt lat="28.2913182" lon="-16.8575818">
        <ele>154.4289551</ele>
        <time>2007-11-15T12:12:49Z</time>
      </trkpt>
      <trkpt lat="28.2913632" lon="-16.8575401">
        <ele>153.4676514</ele>
        <time>2007-11-15T12:13:13Z</time>
      </trkpt>
      <trkpt lat="28.2914802" lon="-16.8577423">
        <ele>151.5449219</ele>
        <time>2007-11-15T12:13:28Z</time>
      </trkpt>
      <trkpt lat="28.2913404" lon="-16.8577519">
        <ele>148.1804199</ele>
        <time>2007-11-15T12:13:41Z</time>
      </trkpt>
      <trkpt lat="28.2913374" lon="-16.8577557">
        <ele>147.2189941</ele>
        <time>2007-11-15T12:13:43Z</time>
      </trkpt>
      <trkpt lat="28.2912223" lon="-16.8577398">
        <ele>148.1804199</ele>
        <time>2007-11-15T12:13:50Z</time>
      </trkpt>
      <trkpt lat="28.2911261" lon="-16.8577537">
        <ele>148.1804199</ele>
        <time>2007-11-15T12:13:57Z</time>
      </trkpt>
      <trkpt lat="28.2911156" lon="-16.8577960">
        <ele>147.6997070</ele>
        <time>2007-11-15T12:14:03Z</time>
      </trkpt>
      <trkpt lat="28.2911228" lon="-16.8578976">
        <ele>147.6997070</ele>
        <time>2007-11-15T12:14:17Z</time>
      </trkpt>
      <trkpt lat="28.2913255" lon="-16.8580359">
        <ele>147.6997070</ele>
        <time>2007-11-15T12:14:28Z</time>
      </trkpt>
      <trkpt lat="28.2912436" lon="-16.8580884">
        <ele>146.7384033</ele>
        <time>2007-11-15T12:14:38Z</time>
      </trkpt>
      <trkpt lat="28.2910010" lon="-16.8580363">
        <ele>145.7770996</ele>
        <time>2007-11-15T12:14:48Z</time>
      </trkpt>
      <trkpt lat="28.2907303" lon="-16.8579746">
        <ele>144.3352051</ele>
        <time>2007-11-15T12:15:00Z</time>
      </trkpt>
      <trkpt lat="28.2907728" lon="-16.8579912">
        <ele>143.3736572</ele>
        <time>2007-11-15T12:15:02Z</time>
      </trkpt>
      <trkpt lat="28.2907757" lon="-16.8580235">
        <ele>142.8930664</ele>
        <time>2007-11-15T12:15:09Z</time>
      </trkpt>
      <trkpt lat="28.2907581" lon="-16.8581275">
        <ele>141.4510498</ele>
        <time>2007-11-15T12:15:19Z</time>
      </trkpt>
      <trkpt lat="28.2907702" lon="-16.8581400">
        <ele>141.4510498</ele>
        <time>2007-11-15T12:15:20Z</time>
      </trkpt>
      <trkpt lat="28.2908176" lon="-16.8581862">
        <ele>141.9317627</ele>
        <time>2007-11-15T12:15:27Z</time>
      </trkpt>
      <trkpt lat="28.2908711" lon="-16.8582809">
        <ele>141.9317627</ele>
        <time>2007-11-15T12:15:34Z</time>
      </trkpt>
      <trkpt lat="28.2910183" lon="-16.8585206">
        <ele>141.4510498</ele>
        <time>2007-11-15T12:15:48Z</time>
      </trkpt>
      <trkpt lat="28.2910798" lon="-16.8586858">
        <ele>140.9704590</ele>
        <time>2007-11-15T12:16:01Z</time>
      </trkpt>
      <trkpt lat="28.2911072" lon="-16.8588573">
        <ele>140.9704590</ele>
        <time>2007-11-15T12:16:12Z</time>
      </trkpt>
      <trkpt lat="28.2911378" lon="-16.8589936">
        <ele>140.4898682</ele>
        <time>2007-11-15T12:16:18Z</time>
      </trkpt>
      <trkpt lat="28.2911442" lon="-16.8591379">
        <ele>140.4898682</ele>
        <time>2007-11-15T12:16:29Z</time>
      </trkpt>
      <trkpt lat="28.2911426" lon="-16.8592169">
        <ele>139.5284424</ele>
        <time>2007-11-15T12:16:38Z</time>
      </trkpt>
      <trkpt lat="28.2911551" lon="-16.8593366">
        <ele>137.6058350</ele>
        <time>2007-11-15T12:16:50Z</time>
      </trkpt>
      <trkpt lat="28.2911029" lon="-16.8594631">
        <ele>135.6831055</ele>
        <time>2007-11-15T12:17:00Z</time>
      </trkpt>
      <trkpt lat="28.2910536" lon="-16.8595618">
        <ele>133.7604980</ele>
        <time>2007-11-15T12:17:11Z</time>
      </trkpt>
      <trkpt lat="28.2911222" lon="-16.8595722">
        <ele>130.3959961</ele>
        <time>2007-11-15T12:17:21Z</time>
      </trkpt>
      <trkpt lat="28.2911069" lon="-16.8596869">
        <ele>129.9152832</ele>
        <time>2007-11-15T12:17:33Z</time>
      </trkpt>
      <trkpt lat="28.2911364" lon="-16.8597189">
        <ele>128.4733887</ele>
        <time>2007-11-15T12:17:44Z</time>
      </trkpt>
      <trkpt lat="28.2911851" lon="-16.8597921">
        <ele>127.5119629</ele>
        <time>2007-11-15T12:17:54Z</time>
      </trkpt>
      <trkpt lat="28.2912170" lon="-16.8598842">
        <ele>127.0313721</ele>
        <time>2007-11-15T12:18:06Z</time>
      </trkpt>
      <trkpt lat="28.2911512" lon="-16.8600149">
        <ele>125.5893555</ele>
        <time>2007-11-15T12:18:21Z</time>
      </trkpt>
      <trkpt lat="28.2910654" lon="-16.8600829">
        <ele>125.1087646</ele>
        <time>2007-11-15T12:18:29Z</time>
      </trkpt>
      <trkpt lat="28.2911103" lon="-16.8601135">
        <ele>125.1087646</ele>
        <time>2007-11-15T12:18:36Z</time>
      </trkpt>
      <trkpt lat="28.2912564" lon="-16.8601199">
        <ele>123.6667480</ele>
        <time>2007-11-15T12:18:47Z</time>
      </trkpt>
      <trkpt lat="28.2912935" lon="-16.8601140">
        <ele>123.1861572</ele>
        <time>2007-11-15T12:18:49Z</time>
      </trkpt>
      <trkpt lat="28.2915778" lon="-16.8600836">
        <ele>123.6667480</ele>
        <time>2007-11-15T12:19:00Z</time>
      </trkpt>
      <trkpt lat="28.2915859" lon="-16.8600893">
        <ele>123.6667480</ele>
        <time>2007-11-15T12:19:01Z</time>
      </trkpt>
      <trkpt lat="28.2916466" lon="-16.8601054">
        <ele>123.6667480</ele>
        <time>2007-11-15T12:19:05Z</time>
      </trkpt>
      <trkpt lat="28.2917765" lon="-16.8601226">
        <ele>122.7054443</ele>
        <time>2007-11-15T12:19:18Z</time>
      </trkpt>
      <trkpt lat="28.2917087" lon="-16.8601402">
        <ele>122.7054443</ele>
        <time>2007-11-15T12:19:25Z</time>
      </trkpt>
      <trkpt lat="28.2918381" lon="-16.8601340">
        <ele>122.2247314</ele>
        <time>2007-11-15T12:19:42Z</time>
      </trkpt>
      <trkpt lat="28.2918506" lon="-16.8601724">
        <ele>122.2247314</ele>
        <time>2007-11-15T12:19:45Z</time>
      </trkpt>
      <trkpt lat="28.2920460" lon="-16.8601945">
        <ele>122.2247314</ele>
        <time>2007-11-15T12:19:55Z</time>
      </trkpt>
      <trkpt lat="28.2921724" lon="-16.8602335">
        <ele>121.7441406</ele>
        <time>2007-11-15T12:20:07Z</time>
      </trkpt>
      <trkpt lat="28.2923034" lon="-16.8601858">
        <ele>121.2635498</ele>
        <time>2007-11-15T12:20:19Z</time>
      </trkpt>
      <trkpt lat="28.2923476" lon="-16.8601790">
        <ele>121.2635498</ele>
        <time>2007-11-15T12:20:37Z</time>
      </trkpt>
      <trkpt lat="28.2923962" lon="-16.8602452">
        <ele>121.7441406</ele>
        <time>2007-11-15T12:20:46Z</time>
      </trkpt>
      <trkpt lat="28.2923851" lon="-16.8604416">
        <ele>118.3793945</ele>
        <time>2007-11-15T12:21:10Z</time>
      </trkpt>
      <trkpt lat="28.2923841" lon="-16.8604756">
        <ele>117.8988037</ele>
        <time>2007-11-15T12:21:13Z</time>
      </trkpt>
      <trkpt lat="28.2923268" lon="-16.8605581">
        <ele>116.4567871</ele>
        <time>2007-11-15T12:21:26Z</time>
      </trkpt>
      <trkpt lat="28.2923523" lon="-16.8606193">
        <ele>115.4956055</ele>
        <time>2007-11-15T12:21:34Z</time>
      </trkpt>
      <trkpt lat="28.2923677" lon="-16.8606605">
        <ele>114.5341797</ele>
        <time>2007-11-15T12:21:39Z</time>
      </trkpt>
      <trkpt lat="28.2924247" lon="-16.8607957">
        <ele>114.5341797</ele>
        <time>2007-11-15T12:21:52Z</time>
      </trkpt>
      <trkpt lat="28.2924558" lon="-16.8608767">
        <ele>114.0535889</ele>
        <time>2007-11-15T12:22:02Z</time>
      </trkpt>
      <trkpt lat="28.2924659" lon="-16.8609658">
        <ele>113.5729980</ele>
        <time>2007-11-15T12:22:11Z</time>
      </trkpt>
      <trkpt lat="28.2925122" lon="-16.8610605">
        <ele>112.6115723</ele>
        <time>2007-11-15T12:22:21Z</time>
      </trkpt>
      <trkpt lat="28.2925137" lon="-16.8611450">
        <ele>111.6502686</ele>
        <time>2007-11-15T12:22:30Z</time>
      </trkpt>
      <trkpt lat="28.2925401" lon="-16.8611973">
        <ele>114.0535889</ele>
        <time>2007-11-15T12:22:37Z</time>
      </trkpt>
      <trkpt lat="28.2924247" lon="-16.8612337">
        <ele>114.0535889</ele>
        <time>2007-11-15T12:22:47Z</time>
      </trkpt>
      <trkpt lat="28.2924096" lon="-16.8612446">
        <ele>114.0535889</ele>
        <time>2007-11-15T12:22:53Z</time>
      </trkpt>
      <trkpt lat="28.2923931" lon="-16.8613217">
        <ele>115.0148926</ele>
        <time>2007-11-15T12:23:02Z</time>
      </trkpt>
      <trkpt lat="28.2923504" lon="-16.8613476">
        <ele>114.5341797</ele>
        <time>2007-11-15T12:23:29Z</time>
      </trkpt>
      <trkpt lat="28.2920738" lon="-16.8612899">
        <ele>112.6115723</ele>
        <time>2007-11-15T12:24:16Z</time>
      </trkpt>
      <trkpt lat="28.2920205" lon="-16.8612647">
        <ele>111.6502686</ele>
        <time>2007-11-15T12:24:22Z</time>
      </trkpt>
      <trkpt lat="28.2920135" lon="-16.8611927">
        <ele>107.8050537</ele>
        <time>2007-11-15T12:24:36Z</time>
      </trkpt>
      <trkpt lat="28.2922382" lon="-16.8612523">
        <ele>106.3630371</ele>
        <time>2007-11-15T12:24:51Z</time>
      </trkpt>
      <trkpt lat="28.2922273" lon="-16.8612563">
        <ele>106.3630371</ele>
        <time>2007-11-15T12:24:53Z</time>
      </trkpt>
      <trkpt lat="28.2922159" lon="-16.8613275">
        <ele>107.8050537</ele>
        <time>2007-11-15T12:25:07Z</time>
      </trkpt>
      <trkpt lat="28.2920336" lon="-16.8614159">
        <ele>107.3243408</ele>
        <time>2007-11-15T12:25:25Z</time>
      </trkpt>
      <trkpt lat="28.2919891" lon="-16.8614508">
        <ele>104.4404297</ele>
        <time>2007-11-15T12:25:39Z</time>
      </trkpt>
      <trkpt lat="28.2919413" lon="-16.8614434">
        <ele>102.9982910</ele>
        <time>2007-11-15T12:25:44Z</time>
      </trkpt>
      <trkpt lat="28.2919154" lon="-16.8614422">
        <ele>101.5563965</ele>
        <time>2007-11-15T12:25:46Z</time>
      </trkpt>
      <trkpt lat="28.2918460" lon="-16.8614036">
        <ele>101.5563965</ele>
        <time>2007-11-15T12:25:51Z</time>
      </trkpt>
      <trkpt lat="28.2917876" lon="-16.8613767">
        <ele>101.5563965</ele>
        <time>2007-11-15T12:25:55Z</time>
      </trkpt>
      <trkpt lat="28.2917618" lon="-16.8614371">
        <ele>100.1145020</ele>
        <time>2007-11-15T12:26:06Z</time>
      </trkpt>
      <trkpt lat="28.2917693" lon="-16.8614536">
        <ele>99.6337891</ele>
        <time>2007-11-15T12:26:17Z</time>
      </trkpt>
      <trkpt lat="28.2917640" lon="-16.8614533">
        <ele>99.1530762</ele>
        <time>2007-11-15T12:26:24Z</time>
      </trkpt>
      <trkpt lat="28.2916320" lon="-16.8613282">
        <ele>98.1918945</ele>
        <time>2007-11-15T12:26:33Z</time>
      </trkpt>
      <trkpt lat="28.2915302" lon="-16.8612643">
        <ele>97.2304688</ele>
        <time>2007-11-15T12:26:46Z</time>
      </trkpt>
      <trkpt lat="28.2914866" lon="-16.8614247">
        <ele>96.7498779</ele>
        <time>2007-11-15T12:26:57Z</time>
      </trkpt>
      <trkpt lat="28.2915042" lon="-16.8614386">
        <ele>96.7498779</ele>
        <time>2007-11-15T12:27:12Z</time>
      </trkpt>
      <trkpt lat="28.2914285" lon="-16.8613770">
        <ele>94.3465576</ele>
        <time>2007-11-15T12:27:31Z</time>
      </trkpt>
      <trkpt lat="28.2914147" lon="-16.8613127">
        <ele>93.8658447</ele>
        <time>2007-11-15T12:27:40Z</time>
      </trkpt>
      <trkpt lat="28.2913618" lon="-16.8612827">
        <ele>94.3465576</ele>
        <time>2007-11-15T12:27:52Z</time>
      </trkpt>
      <trkpt lat="28.2914534" lon="-16.8612515">
        <ele>92.4239502</ele>
        <time>2007-11-15T12:28:07Z</time>
      </trkpt>
      <trkpt lat="28.2914453" lon="-16.8611443">
        <ele>92.4239502</ele>
        <time>2007-11-15T12:28:38Z</time>
      </trkpt>
      <trkpt lat="28.2914276" lon="-16.8610943">
        <ele>91.9432373</ele>
        <time>2007-11-15T12:28:42Z</time>
      </trkpt>
      <trkpt lat="28.2913957" lon="-16.8610208">
        <ele>90.9819336</ele>
        <time>2007-11-15T12:28:50Z</time>
      </trkpt>
      <trkpt lat="28.2913602" lon="-16.8610138">
        <ele>90.5013428</ele>
        <time>2007-11-15T12:28:57Z</time>
      </trkpt>
      <trkpt lat="28.2912295" lon="-16.8609720">
        <ele>91.4625244</ele>
        <time>2007-11-15T12:29:09Z</time>
      </trkpt>
      <trkpt lat="28.2911120" lon="-16.8610081">
        <ele>90.0206299</ele>
        <time>2007-11-15T12:29:19Z</time>
      </trkpt>
      <trkpt lat="28.2909405" lon="-16.8609332">
        <ele>89.5399170</ele>
        <time>2007-11-15T12:29:29Z</time>
      </trkpt>
      <trkpt lat="28.2907697" lon="-16.8610694">
        <ele>86.6560059</ele>
        <time>2007-11-15T12:29:41Z</time>
      </trkpt>
      <trkpt lat="28.2907256" lon="-16.8613340">
        <ele>86.6560059</ele>
        <time>2007-11-15T12:30:03Z</time>
      </trkpt>
      <trkpt lat="28.2906690" lon="-16.8613652">
        <ele>84.7333984</ele>
        <time>2007-11-15T12:30:19Z</time>
      </trkpt>
      <trkpt lat="28.2906101" lon="-16.8614565">
        <ele>83.7719727</ele>
        <time>2007-11-15T12:30:33Z</time>
      </trkpt>
      <trkpt lat="28.2905117" lon="-16.8614424">
        <ele>82.8107910</ele>
        <time>2007-11-15T12:30:46Z</time>
      </trkpt>
      <trkpt lat="28.2904610" lon="-16.8614403">
        <ele>81.3687744</ele>
        <time>2007-11-15T12:30:52Z</time>
      </trkpt>
      <trkpt lat="28.2904490" lon="-16.8614391">
        <ele>81.8493652</ele>
        <time>2007-11-15T12:30:53Z</time>
      </trkpt>
      <trkpt lat="28.2903799" lon="-16.8614412">
        <ele>79.4460449</ele>
        <time>2007-11-15T12:31:04Z</time>
      </trkpt>
      <trkpt lat="28.2903584" lon="-16.8614759">
        <ele>80.4074707</ele>
        <time>2007-11-15T12:31:13Z</time>
      </trkpt>
      <trkpt lat="28.2902490" lon="-16.8614771">
        <ele>79.4460449</ele>
        <time>2007-11-15T12:31:34Z</time>
      </trkpt>
      <trkpt lat="28.2902018" lon="-16.8614585">
        <ele>79.4460449</ele>
        <time>2007-11-15T12:31:40Z</time>
      </trkpt>
      <trkpt lat="28.2901605" lon="-16.8614663">
        <ele>78.4847412</ele>
        <time>2007-11-15T12:31:44Z</time>
      </trkpt>
      <trkpt lat="28.2900375" lon="-16.8615025">
        <ele>79.4460449</ele>
        <time>2007-11-15T12:31:54Z</time>
      </trkpt>
      <trkpt lat="28.2899477" lon="-16.8614988">
        <ele>78.9654541</ele>
        <time>2007-11-15T12:32:06Z</time>
      </trkpt>
      <trkpt lat="28.2899529" lon="-16.8614614">
        <ele>79.4460449</ele>
        <time>2007-11-15T12:32:11Z</time>
      </trkpt>
      <trkpt lat="28.2898972" lon="-16.8614751">
        <ele>78.0040283</ele>
        <time>2007-11-15T12:32:20Z</time>
      </trkpt>
      <trkpt lat="28.2899818" lon="-16.8617027">
        <ele>77.0428467</ele>
        <time>2007-11-15T12:32:28Z</time>
      </trkpt>
      <trkpt lat="28.2899326" lon="-16.8616811">
        <ele>77.0428467</ele>
        <time>2007-11-15T12:32:31Z</time>
      </trkpt>
      <trkpt lat="28.2898854" lon="-16.8618055">
        <ele>75.6008301</ele>
        <time>2007-11-15T12:32:45Z</time>
      </trkpt>
      <trkpt lat="28.2898296" lon="-16.8617821">
        <ele>75.1202393</ele>
        <time>2007-11-15T12:32:48Z</time>
      </trkpt>
      <trkpt lat="28.2897236" lon="-16.8617568">
        <ele>73.6782227</ele>
        <time>2007-11-15T12:32:56Z</time>
      </trkpt>
      <trkpt lat="28.2897216" lon="-16.8617832">
        <ele>73.1976318</ele>
        <time>2007-11-15T12:32:58Z</time>
      </trkpt>
      <trkpt lat="28.2896285" lon="-16.8618390">
        <ele>72.7169189</ele>
        <time>2007-11-15T12:33:10Z</time>
      </trkpt>
      <trkpt lat="28.2895627" lon="-16.8618293">
        <ele>72.2362061</ele>
        <time>2007-11-15T12:33:16Z</time>
      </trkpt>
      <trkpt lat="28.2894710" lon="-16.8619358">
        <ele>71.2749023</ele>
        <time>2007-11-15T12:33:30Z</time>
      </trkpt>
      <trkpt lat="28.2893866" lon="-16.8619877">
        <ele>71.2749023</ele>
        <time>2007-11-15T12:33:44Z</time>
      </trkpt>
      <trkpt lat="28.2893838" lon="-16.8619947">
        <ele>70.7941895</ele>
        <time>2007-11-15T12:33:46Z</time>
      </trkpt>
      <trkpt lat="28.2893767" lon="-16.8620133">
        <ele>70.7941895</ele>
        <time>2007-11-15T12:33:48Z</time>
      </trkpt>
      <trkpt lat="28.2893009" lon="-16.8620908">
        <ele>70.3134766</ele>
        <time>2007-11-15T12:34:00Z</time>
      </trkpt>
      <trkpt lat="28.2891706" lon="-16.8622189">
        <ele>69.8328857</ele>
        <time>2007-11-15T12:34:18Z</time>
      </trkpt>
      <trkpt lat="28.2891577" lon="-16.8622355">
        <ele>69.8328857</ele>
        <time>2007-11-15T12:34:20Z</time>
      </trkpt>
      <trkpt lat="28.2890723" lon="-16.8623654">
        <ele>69.8328857</ele>
        <time>2007-11-15T12:34:37Z</time>
      </trkpt>
      <trkpt lat="28.2890083" lon="-16.8624523">
        <ele>68.3908691</ele>
        <time>2007-11-15T12:34:52Z</time>
      </trkpt>
      <trkpt lat="28.2889772" lon="-16.8624779">
        <ele>67.4296875</ele>
        <time>2007-11-15T12:35:07Z</time>
      </trkpt>
      <trkpt lat="28.2889684" lon="-16.8625262">
        <ele>65.0263672</ele>
        <time>2007-11-15T12:35:51Z</time>
      </trkpt>
      <trkpt lat="28.2889701" lon="-16.8625317">
        <ele>63.5843506</ele>
        <time>2007-11-15T12:36:04Z</time>
      </trkpt>
      <trkpt lat="28.2889748" lon="-16.8625362">
        <ele>64.5456543</ele>
        <time>2007-11-15T12:36:29Z</time>
      </trkpt>
      <trkpt lat="28.2889741" lon="-16.8625360">
        <ele>63.5843506</ele>
        <time>2007-11-15T12:36:32Z</time>
      </trkpt>
    </trkseg>
  </trk>

</gpx>
